VOL101F LEMD-EGPC
Flight info
| Callsign | VOL101F |
|---|---|
| Flight time | 4h 9m |
| Altitude | 20000 |
| Route | SIE N865 DELOG DCT COQUE DCT TALIG DCT IJALA DCT EVRIN DCT NEXAT DCT BUNED/N0265F210 N34 DUB P600 ADN/N0271F220 Y904 WIK |
| Aircraft | AT76/M-SDFGIRY/S |
Departure
| Time | 2026-05-09 05:15 |
|---|---|
| Airport | Adolfo Suárez Madrid–Barajas Airport (LEMD) |
Arrival
| Time | 2026-05-09 09:24 |
|---|---|
| Airport | Wick John O'Groats Airport (EGPC) |
| Time | Latitude | Longitude | Altitude | Speed | Heading |
|---|---|---|---|---|---|
| 2026-05-09 04:54 | 40.45906 | -3.56317 | 1962 ft | 0 kts | 180° |
| 2026-05-09 05:03 | 40.45902 | -3.56318 | 1962 ft | 2 kts | 180° |
| 2026-05-09 05:03 | 40.45886 | -3.56321 | 1962 ft | 3 kts | 203° |
| 2026-05-09 05:03 | 40.45876 | -3.56348 | 1962 ft | 4 kts | 259° |
| 2026-05-09 05:04 | 40.45876 | -3.56401 | 1964 ft | 7 kts | 269° |
| 2026-05-09 05:04 | 40.45876 | -3.56474 | 1966 ft | 9 kts | 270° |
| 2026-05-09 05:04 | 40.45906 | -3.56532 | 1967 ft | 10 kts | 354° |
| 2026-05-09 05:04 | 40.45983 | -3.56528 | 1970 ft | 13 kts | 3° |
| 2026-05-09 05:05 | 40.46079 | -3.56521 | 1967 ft | 15 kts | 4° |
| 2026-05-09 05:05 | 40.46185 | -3.56513 | 1967 ft | 16 kts | 4° |
| 2026-05-09 05:05 | 40.46294 | -3.56502 | 1967 ft | 16 kts | 4° |
| 2026-05-09 05:05 | 40.46405 | -3.56492 | 1968 ft | 16 kts | 4° |
| 2026-05-09 05:06 | 40.46517 | -3.56483 | 1969 ft | 16 kts | 1° |
| 2026-05-09 05:06 | 40.46630 | -3.56476 | 1969 ft | 16 kts | 3° |
| 2026-05-09 05:06 | 40.46742 | -3.56465 | 1970 ft | 16 kts | 5° |
| 2026-05-09 05:06 | 40.46855 | -3.56457 | 1971 ft | 16 kts | 2° |
| 2026-05-09 05:07 | 40.46967 | -3.56450 | 1976 ft | 16 kts | 2° |
| 2026-05-09 05:07 | 40.47075 | -3.56473 | 1974 ft | 16 kts | 346° |
| 2026-05-09 05:07 | 40.47172 | -3.56530 | 1978 ft | 16 kts | 319° |
| 2026-05-09 05:07 | 40.47256 | -3.56618 | 1980 ft | 15 kts | 322° |
| 2026-05-09 05:08 | 40.47336 | -3.56698 | 1983 ft | 14 kts | 323° |
| 2026-05-09 05:08 | 40.47413 | -3.56773 | 1986 ft | 14 kts | 324° |
| 2026-05-09 05:08 | 40.47487 | -3.56848 | 1988 ft | 13 kts | 322° |
| 2026-05-09 05:08 | 40.47559 | -3.56921 | 1989 ft | 13 kts | 322° |
| 2026-05-09 05:09 | 40.47631 | -3.56994 | 1992 ft | 13 kts | 323° |
| 2026-05-09 05:09 | 40.47701 | -3.57063 | 1994 ft | 13 kts | 323° |
| 2026-05-09 05:09 | 40.47771 | -3.57131 | 1996 ft | 13 kts | 323° |
| 2026-05-09 05:09 | 40.47840 | -3.57203 | 1998 ft | 13 kts | 321° |
| 2026-05-09 05:10 | 40.47908 | -3.57276 | 2001 ft | 13 kts | 320° |
| 2026-05-09 05:10 | 40.47978 | -3.57352 | 2000 ft | 14 kts | 321° |
| 2026-05-09 05:10 | 40.48063 | -3.57440 | 1998 ft | 16 kts | 322° |
| 2026-05-09 05:10 | 40.48158 | -3.57532 | 1996 ft | 18 kts | 323° |
| 2026-05-09 05:11 | 40.48259 | -3.57632 | 1993 ft | 19 kts | 324° |
| 2026-05-09 05:11 | 40.48364 | -3.57734 | 1990 ft | 19 kts | 323° |
| 2026-05-09 05:11 | 40.48475 | -3.57832 | 1989 ft | 19 kts | 329° |
| 2026-05-09 05:11 | 40.48575 | -3.57902 | 1996 ft | 14 kts | 338° |
| 2026-05-09 05:12 | 40.48675 | -3.57926 | 1995 ft | 15 kts | 360° |
| 2026-05-09 05:12 | 40.48778 | -3.57928 | 1995 ft | 15 kts | 359° |
| 2026-05-09 05:12 | 40.48883 | -3.57929 | 1995 ft | 15 kts | 0° |
| 2026-05-09 05:12 | 40.48988 | -3.57927 | 1995 ft | 15 kts | 359° |
| 2026-05-09 05:13 | 40.49093 | -3.57930 | 1995 ft | 15 kts | 359° |
| 2026-05-09 05:13 | 40.49175 | -3.57872 | 1993 ft | 15 kts | 78° |
| 2026-05-09 05:13 | 40.49170 | -3.57736 | 1988 ft | 15 kts | 92° |
| 2026-05-09 05:13 | 40.49183 | -3.57602 | 1985 ft | 15 kts | 69° |
| 2026-05-09 05:14 | 40.49231 | -3.57480 | 1981 ft | 16 kts | 51° |
| 2026-05-09 05:14 | 40.49363 | -3.57450 | 1979 ft | 40 kts | 1° |
| 2026-05-09 05:14 | 40.49841 | -3.57459 | 1981 ft | 96 kts | 1° |
| 2026-05-09 05:14 | 40.50644 | -3.57472 | 2059 ft | 128 kts | 359° |
| 2026-05-09 05:15 | 40.51536 | -3.57536 | 2509 ft | 132 kts | 360° |
| 2026-05-09 05:15 | 40.52506 | -3.57560 | 2838 ft | 148 kts | 2° |
| 2026-05-09 05:15 | 40.53607 | -3.57513 | 3059 ft | 168 kts | 4° |
| 2026-05-09 05:15 | 40.54774 | -3.57451 | 3421 ft | 170 kts | 2° |
| 2026-05-09 05:16 | 40.55978 | -3.57245 | 3586 ft | 183 kts | 13° |
| 2026-05-09 05:16 | 40.57243 | -3.56842 | 3854 ft | 189 kts | 17° |
| 2026-05-09 05:16 | 40.58510 | -3.56340 | 4178 ft | 191 kts | 19° |
| 2026-05-09 05:16 | 40.59787 | -3.55820 | 4502 ft | 194 kts | 18° |
| 2026-05-09 05:17 | 40.61093 | -3.55305 | 4812 ft | 197 kts | 18° |
| 2026-05-09 05:17 | 40.62417 | -3.54800 | 5144 ft | 198 kts | 17° |
| 2026-05-09 05:17 | 40.63729 | -3.54331 | 5487 ft | 199 kts | 12° |
| 2026-05-09 05:17 | 40.65097 | -3.54053 | 5806 ft | 200 kts | 6° |
| 2026-05-09 05:18 | 40.66488 | -3.53912 | 6138 ft | 201 kts | 3° |
| 2026-05-09 05:18 | 40.67885 | -3.53821 | 6458 ft | 201 kts | 2° |
| 2026-05-09 05:18 | 40.69285 | -3.53736 | 6748 ft | 203 kts | 2° |
| 2026-05-09 05:18 | 40.70699 | -3.53649 | 7051 ft | 204 kts | 3° |
| 2026-05-09 05:19 | 40.72117 | -3.53539 | 7352 ft | 205 kts | 4° |
| 2026-05-09 05:19 | 40.73544 | -3.53416 | 7647 ft | 206 kts | 4° |
| 2026-05-09 05:19 | 40.74980 | -3.53292 | 7943 ft | 207 kts | 4° |
| 2026-05-09 05:19 | 40.76403 | -3.53216 | 8234 ft | 208 kts | 356° |
| 2026-05-09 05:20 | 40.77848 | -3.53432 | 8511 ft | 209 kts | 349° |
| 2026-05-09 05:20 | 40.79286 | -3.53758 | 8785 ft | 210 kts | 349° |
| 2026-05-09 05:20 | 40.80731 | -3.54094 | 9083 ft | 212 kts | 349° |
| 2026-05-09 05:20 | 40.82189 | -3.54412 | 9354 ft | 213 kts | 350° |
| 2026-05-09 05:21 | 40.83664 | -3.54696 | 9647 ft | 215 kts | 351° |
| 2026-05-09 05:21 | 40.85147 | -3.54971 | 9913 ft | 216 kts | 351° |
| 2026-05-09 05:21 | 40.86640 | -3.55246 | 10169 ft | 217 kts | 351° |
| 2026-05-09 05:21 | 40.88112 | -3.55518 | 10431 ft | 217 kts | 351° |
| 2026-05-09 05:22 | 40.89611 | -3.55798 | 10673 ft | 218 kts | 351° |
| 2026-05-09 05:22 | 40.91113 | -3.56072 | 10923 ft | 219 kts | 351° |
| 2026-05-09 05:22 | 40.92623 | -3.56349 | 11174 ft | 219 kts | 350° |
| 2026-05-09 05:22 | 40.94134 | -3.56629 | 11432 ft | 219 kts | 350° |
| 2026-05-09 05:23 | 40.95648 | -3.56910 | 11669 ft | 220 kts | 350° |
| 2026-05-09 05:23 | 40.97164 | -3.57188 | 11903 ft | 221 kts | 350° |
| 2026-05-09 05:23 | 40.98691 | -3.57470 | 12127 ft | 222 kts | 349° |
| 2026-05-09 05:23 | 41.00222 | -3.57756 | 12372 ft | 223 kts | 349° |
| 2026-05-09 05:24 | 41.01759 | -3.58043 | 12622 ft | 223 kts | 349° |
| 2026-05-09 05:24 | 41.03281 | -3.58321 | 12841 ft | 224 kts | 349° |
| 2026-05-09 05:24 | 41.04828 | -3.58607 | 13084 ft | 225 kts | 349° |
| 2026-05-09 05:24 | 41.06382 | -3.58898 | 13300 ft | 226 kts | 349° |
| 2026-05-09 05:25 | 41.07946 | -3.59184 | 13529 ft | 227 kts | 349° |
| 2026-05-09 05:25 | 41.09511 | -3.59470 | 13744 ft | 228 kts | 349° |
| 2026-05-09 05:25 | 41.12662 | -3.60045 | 14129 ft | 230 kts | 349° |
| 2026-05-09 05:26 | 41.14253 | -3.60327 | 14328 ft | 231 kts | 349° |
| 2026-05-09 05:26 | 41.15825 | -3.60604 | 14501 ft | 232 kts | 351° |
| 2026-05-09 05:26 | 41.17442 | -3.60727 | 14678 ft | 233 kts | 356° |
| 2026-05-09 05:26 | 41.19071 | -3.60747 | 14849 ft | 235 kts | 357° |
| 2026-05-09 05:27 | 41.20708 | -3.60755 | 15022 ft | 236 kts | 357° |
| 2026-05-09 05:27 | 41.22356 | -3.60776 | 15181 ft | 237 kts | 356° |
| 2026-05-09 05:27 | 41.24003 | -3.60816 | 15350 ft | 237 kts | 356° |
| 2026-05-09 05:27 | 41.25658 | -3.60857 | 15519 ft | 238 kts | 356° |
| 2026-05-09 05:28 | 41.27317 | -3.60899 | 15670 ft | 239 kts | 356° |
| 2026-05-09 05:28 | 41.28981 | -3.60940 | 15829 ft | 239 kts | 356° |
| 2026-05-09 05:28 | 41.30626 | -3.60982 | 15986 ft | 240 kts | 356° |
| 2026-05-09 05:28 | 41.32301 | -3.61025 | 16148 ft | 241 kts | 356° |
| 2026-05-09 05:29 | 41.33980 | -3.61066 | 16305 ft | 242 kts | 355° |
| 2026-05-09 05:29 | 41.35664 | -3.61110 | 16461 ft | 243 kts | 356° |
| 2026-05-09 05:29 | 41.37354 | -3.61153 | 16615 ft | 243 kts | 355° |
| 2026-05-09 05:29 | 41.39049 | -3.61196 | 16761 ft | 244 kts | 355° |
| 2026-05-09 05:30 | 41.40749 | -3.61238 | 16907 ft | 245 kts | 355° |
| 2026-05-09 05:30 | 41.42455 | -3.61282 | 17051 ft | 246 kts | 355° |
| 2026-05-09 05:30 | 41.44164 | -3.61328 | 17193 ft | 246 kts | 355° |
| 2026-05-09 05:30 | 41.45858 | -3.61374 | 17323 ft | 247 kts | 355° |
| 2026-05-09 05:31 | 41.47580 | -3.61421 | 17461 ft | 248 kts | 355° |
| 2026-05-09 05:31 | 41.49302 | -3.61467 | 17598 ft | 248 kts | 355° |
| 2026-05-09 05:31 | 41.51032 | -3.61483 | 17717 ft | 249 kts | 357° |
| 2026-05-09 05:31 | 41.52771 | -3.61446 | 17839 ft | 250 kts | 357° |
| 2026-05-09 05:32 | 41.54515 | -3.61408 | 17957 ft | 251 kts | 357° |
| 2026-05-09 05:32 | 41.56263 | -3.61384 | 18082 ft | 251 kts | 356° |
| 2026-05-09 05:32 | 41.58014 | -3.61380 | 18198 ft | 252 kts | 356° |
| 2026-05-09 05:32 | 41.59773 | -3.61391 | 18298 ft | 253 kts | 355° |
| 2026-05-09 05:33 | 41.61531 | -3.61406 | 18408 ft | 254 kts | 355° |
| 2026-05-09 05:33 | 41.63273 | -3.61430 | 18516 ft | 254 kts | 356° |
| 2026-05-09 05:33 | 41.65040 | -3.61435 | 18615 ft | 254 kts | 356° |
| 2026-05-09 05:33 | 41.66813 | -3.61437 | 18714 ft | 255 kts | 356° |
| 2026-05-09 05:34 | 41.68593 | -3.61438 | 18808 ft | 256 kts | 356° |
| 2026-05-09 05:34 | 41.70375 | -3.61438 | 18906 ft | 256 kts | 356° |
| 2026-05-09 05:34 | 41.72161 | -3.61438 | 19002 ft | 257 kts | 356° |
| 2026-05-09 05:34 | 41.73951 | -3.61439 | 19091 ft | 258 kts | 356° |
| 2026-05-09 05:35 | 41.75748 | -3.61440 | 19181 ft | 258 kts | 356° |
| 2026-05-09 05:35 | 41.77544 | -3.61441 | 19275 ft | 259 kts | 356° |
| 2026-05-09 05:35 | 41.79323 | -3.61441 | 19364 ft | 259 kts | 356° |
| 2026-05-09 05:35 | 41.81129 | -3.61440 | 19447 ft | 260 kts | 356° |
| 2026-05-09 05:36 | 41.82939 | -3.61443 | 19528 ft | 260 kts | 356° |
| 2026-05-09 05:36 | 41.84752 | -3.61443 | 19612 ft | 261 kts | 356° |
| 2026-05-09 05:36 | 41.86564 | -3.61443 | 19737 ft | 259 kts | 356° |
| 2026-05-09 05:36 | 41.88369 | -3.61443 | 19821 ft | 260 kts | 356° |
| 2026-05-09 05:37 | 41.90186 | -3.61445 | 19862 ft | 262 kts | 356° |
| 2026-05-09 05:37 | 41.92022 | -3.61444 | 19876 ft | 266 kts | 356° |
| 2026-05-09 05:37 | 41.93878 | -3.61451 | 19889 ft | 268 kts | 356° |
| 2026-05-09 05:37 | 41.95732 | -3.61455 | 19890 ft | 271 kts | 356° |
| 2026-05-09 05:38 | 41.97626 | -3.61456 | 19900 ft | 274 kts | 356° |
| 2026-05-09 05:38 | 41.99539 | -3.61458 | 19899 ft | 276 kts | 356° |
| 2026-05-09 05:38 | 42.01465 | -3.61471 | 19896 ft | 278 kts | 355° |
| 2026-05-09 05:38 | 42.03397 | -3.61518 | 19896 ft | 279 kts | 355° |
| 2026-05-09 05:39 | 42.05340 | -3.61584 | 19904 ft | 280 kts | 354° |
| 2026-05-09 05:39 | 42.07286 | -3.61698 | 19901 ft | 281 kts | 353° |
| 2026-05-09 05:39 | 42.09218 | -3.61824 | 19903 ft | 282 kts | 353° |
| 2026-05-09 05:39 | 42.11176 | -3.61956 | 19901 ft | 283 kts | 353° |
| 2026-05-09 05:40 | 42.13143 | -3.62075 | 19900 ft | 283 kts | 353° |
| 2026-05-09 05:40 | 42.15113 | -3.62205 | 19905 ft | 284 kts | 353° |
| 2026-05-09 05:40 | 42.17093 | -3.62329 | 19904 ft | 284 kts | 353° |
| 2026-05-09 05:40 | 42.19067 | -3.62457 | 19908 ft | 284 kts | 353° |
| 2026-05-09 05:41 | 42.21045 | -3.62597 | 19907 ft | 285 kts | 353° |
| 2026-05-09 05:41 | 42.23025 | -3.62746 | 19906 ft | 285 kts | 353° |
| 2026-05-09 05:41 | 42.25004 | -3.62901 | 19912 ft | 285 kts | 352° |
| 2026-05-09 05:41 | 42.26991 | -3.63047 | 19915 ft | 286 kts | 353° |
| 2026-05-09 05:42 | 42.28950 | -3.63185 | 19914 ft | 286 kts | 353° |
| 2026-05-09 05:42 | 42.30938 | -3.63318 | 19910 ft | 286 kts | 353° |
| 2026-05-09 05:42 | 42.32925 | -3.63448 | 19912 ft | 286 kts | 353° |
| 2026-05-09 05:42 | 42.34915 | -3.63587 | 19912 ft | 286 kts | 353° |
| 2026-05-09 05:43 | 42.36899 | -3.63768 | 19909 ft | 285 kts | 350° |
| 2026-05-09 05:43 | 42.38865 | -3.64101 | 19911 ft | 284 kts | 346° |
| 2026-05-09 05:43 | 42.40811 | -3.64526 | 19914 ft | 283 kts | 346° |
| 2026-05-09 05:43 | 42.42760 | -3.64964 | 19908 ft | 283 kts | 346° |
| 2026-05-09 05:44 | 42.44704 | -3.65385 | 19912 ft | 283 kts | 347° |
| 2026-05-09 05:44 | 42.46656 | -3.65776 | 19913 ft | 284 kts | 347° |
| 2026-05-09 05:44 | 42.48585 | -3.66157 | 19911 ft | 284 kts | 347° |
| 2026-05-09 05:44 | 42.50540 | -3.66546 | 19911 ft | 284 kts | 347° |
| 2026-05-09 05:45 | 42.52496 | -3.66935 | 19907 ft | 284 kts | 347° |
| 2026-05-09 05:45 | 42.54445 | -3.67322 | 19909 ft | 284 kts | 347° |
| 2026-05-09 05:45 | 42.56397 | -3.67711 | 19912 ft | 284 kts | 347° |
| 2026-05-09 05:45 | 42.58348 | -3.68100 | 19912 ft | 284 kts | 347° |
| 2026-05-09 05:46 | 42.60301 | -3.68491 | 19909 ft | 283 kts | 347° |
| 2026-05-09 05:46 | 42.62250 | -3.68885 | 19910 ft | 283 kts | 347° |
| 2026-05-09 05:46 | 42.64174 | -3.69271 | 19913 ft | 283 kts | 347° |
| 2026-05-09 05:46 | 42.66124 | -3.69662 | 19913 ft | 283 kts | 347° |
| 2026-05-09 05:47 | 42.68074 | -3.70058 | 19911 ft | 283 kts | 347° |
| 2026-05-09 05:47 | 42.70027 | -3.70415 | 19907 ft | 283 kts | 349° |
| 2026-05-09 05:47 | 42.71985 | -3.70721 | 19915 ft | 284 kts | 349° |
| 2026-05-09 05:47 | 42.73945 | -3.71038 | 19912 ft | 284 kts | 348° |
| 2026-05-09 05:48 | 42.75907 | -3.71376 | 19911 ft | 284 kts | 348° |
| 2026-05-09 05:48 | 42.77864 | -3.71707 | 19910 ft | 284 kts | 348° |
| 2026-05-09 05:48 | 42.79798 | -3.72040 | 19906 ft | 283 kts | 348° |
| 2026-05-09 05:48 | 42.81750 | -3.72370 | 19911 ft | 283 kts | 348° |
| 2026-05-09 05:49 | 42.83704 | -3.72703 | 19908 ft | 283 kts | 348° |
| 2026-05-09 05:49 | 42.85657 | -3.73037 | 19910 ft | 283 kts | 348° |
| 2026-05-09 05:49 | 42.87615 | -3.73370 | 19900 ft | 283 kts | 348° |
| 2026-05-09 05:49 | 42.89568 | -3.73705 | 19900 ft | 283 kts | 348° |
| 2026-05-09 05:50 | 42.91521 | -3.74040 | 19908 ft | 283 kts | 348° |
| 2026-05-09 05:50 | 42.93476 | -3.74374 | 19907 ft | 283 kts | 348° |
| 2026-05-09 05:50 | 42.95435 | -3.74712 | 19895 ft | 284 kts | 348° |
| 2026-05-09 05:50 | 42.97392 | -3.75045 | 19892 ft | 284 kts | 348° |
| 2026-05-09 05:51 | 42.99324 | -3.75385 | 19898 ft | 284 kts | 347° |
| 2026-05-09 05:51 | 43.01287 | -3.75725 | 19896 ft | 284 kts | 348° |
| 2026-05-09 05:51 | 43.03252 | -3.76064 | 19897 ft | 285 kts | 348° |
| 2026-05-09 05:51 | 43.05228 | -3.76405 | 19888 ft | 287 kts | 348° |
| 2026-05-09 05:52 | 43.07214 | -3.76746 | 19894 ft | 288 kts | 348° |
| 2026-05-09 05:52 | 43.09198 | -3.77088 | 19874 ft | 288 kts | 348° |
| 2026-05-09 05:52 | 43.11185 | -3.77431 | 19889 ft | 288 kts | 348° |
| 2026-05-09 05:52 | 43.13171 | -3.77770 | 19867 ft | 287 kts | 348° |
| 2026-05-09 05:53 | 43.15155 | -3.78111 | 19868 ft | 287 kts | 348° |
| 2026-05-09 05:53 | 43.17107 | -3.78451 | 19881 ft | 287 kts | 348° |
| 2026-05-09 05:53 | 43.19091 | -3.78790 | 19873 ft | 288 kts | 347° |
| 2026-05-09 05:53 | 43.21079 | -3.79140 | 19870 ft | 288 kts | 348° |
| 2026-05-09 05:54 | 43.23071 | -3.79482 | 19861 ft | 289 kts | 348° |
| 2026-05-09 05:54 | 43.25068 | -3.79827 | 19860 ft | 290 kts | 348° |
| 2026-05-09 05:54 | 43.27067 | -3.80174 | 19862 ft | 289 kts | 348° |
| 2026-05-09 05:54 | 43.29066 | -3.80521 | 19855 ft | 289 kts | 348° |
| 2026-05-09 05:55 | 43.31058 | -3.80866 | 19845 ft | 289 kts | 348° |
| 2026-05-09 05:55 | 43.33026 | -3.81209 | 19854 ft | 288 kts | 348° |
| 2026-05-09 05:55 | 43.35014 | -3.81555 | 19859 ft | 288 kts | 348° |
| 2026-05-09 05:55 | 43.37003 | -3.81901 | 19868 ft | 288 kts | 348° |
| 2026-05-09 05:56 | 43.38991 | -3.82241 | 19855 ft | 288 kts | 348° |
| 2026-05-09 05:56 | 43.40980 | -3.82589 | 19854 ft | 288 kts | 348° |
| 2026-05-09 05:56 | 43.42965 | -3.82935 | 19860 ft | 288 kts | 348° |
| 2026-05-09 05:56 | 43.44949 | -3.83282 | 19855 ft | 288 kts | 348° |
| 2026-05-09 05:57 | 43.46933 | -3.83627 | 19854 ft | 287 kts | 348° |
| 2026-05-09 05:57 | 43.48922 | -3.83968 | 19858 ft | 288 kts | 348° |
| 2026-05-09 05:57 | 43.50882 | -3.84307 | 19858 ft | 287 kts | 348° |
| 2026-05-09 05:57 | 43.52865 | -3.84656 | 19858 ft | 287 kts | 348° |
| 2026-05-09 05:58 | 43.54846 | -3.85002 | 19853 ft | 287 kts | 348° |
| 2026-05-09 05:58 | 43.56828 | -3.85350 | 19855 ft | 287 kts | 348° |
| 2026-05-09 05:58 | 43.58807 | -3.85697 | 19852 ft | 287 kts | 348° |
| 2026-05-09 05:58 | 43.60784 | -3.86044 | 19852 ft | 287 kts | 348° |
| 2026-05-09 05:59 | 43.62762 | -3.86390 | 19851 ft | 287 kts | 348° |
| 2026-05-09 05:59 | 43.64742 | -3.86738 | 19848 ft | 286 kts | 348° |
| 2026-05-09 05:59 | 43.66718 | -3.87083 | 19846 ft | 286 kts | 348° |
| 2026-05-09 05:59 | 43.68693 | -3.87430 | 19845 ft | 286 kts | 348° |
| 2026-05-09 06:00 | 43.70673 | -3.87778 | 19843 ft | 286 kts | 348° |
| 2026-05-09 06:00 | 43.72620 | -3.88121 | 19841 ft | 286 kts | 348° |
| 2026-05-09 06:00 | 43.74600 | -3.88470 | 19839 ft | 287 kts | 348° |
| 2026-05-09 06:00 | 43.76575 | -3.88816 | 19838 ft | 287 kts | 349° |
| 2026-05-09 06:01 | 43.78554 | -3.89165 | 19835 ft | 287 kts | 348° |
| 2026-05-09 06:01 | 43.80532 | -3.89515 | 19838 ft | 287 kts | 349° |
| 2026-05-09 06:01 | 43.82514 | -3.89864 | 19837 ft | 287 kts | 349° |
| 2026-05-09 06:01 | 43.84493 | -3.90214 | 19837 ft | 287 kts | 349° |
| 2026-05-09 06:02 | 43.86476 | -3.90564 | 19836 ft | 287 kts | 349° |
| 2026-05-09 06:02 | 43.88460 | -3.90913 | 19836 ft | 287 kts | 349° |
| 2026-05-09 06:02 | 43.90415 | -3.91258 | 19834 ft | 287 kts | 349° |
| 2026-05-09 06:02 | 43.92401 | -3.91612 | 19833 ft | 287 kts | 349° |
| 2026-05-09 06:03 | 43.94382 | -3.91961 | 19838 ft | 287 kts | 349° |
| 2026-05-09 06:03 | 43.96367 | -3.92314 | 19840 ft | 287 kts | 349° |
| 2026-05-09 06:03 | 43.98352 | -3.92667 | 19840 ft | 287 kts | 349° |
| 2026-05-09 06:03 | 44.00335 | -3.93020 | 19844 ft | 288 kts | 349° |
| 2026-05-09 06:04 | 44.02320 | -3.93372 | 19839 ft | 288 kts | 349° |
| 2026-05-09 06:04 | 44.04306 | -3.93725 | 19841 ft | 288 kts | 349° |
| 2026-05-09 06:04 | 44.06269 | -3.94074 | 19840 ft | 288 kts | 349° |
| 2026-05-09 06:04 | 44.08255 | -3.94427 | 19843 ft | 288 kts | 349° |
| 2026-05-09 06:05 | 44.10243 | -3.94779 | 19841 ft | 288 kts | 349° |
| 2026-05-09 06:05 | 44.12231 | -3.95135 | 19839 ft | 288 kts | 349° |
| 2026-05-09 06:05 | 44.14218 | -3.95490 | 19840 ft | 288 kts | 349° |
| 2026-05-09 06:05 | 44.16205 | -3.95843 | 19839 ft | 288 kts | 349° |
| 2026-05-09 06:06 | 44.18191 | -3.96198 | 19840 ft | 288 kts | 349° |
| 2026-05-09 06:06 | 44.20174 | -3.96552 | 19842 ft | 288 kts | 349° |
| 2026-05-09 06:06 | 44.22162 | -3.96907 | 19843 ft | 288 kts | 350° |
| 2026-05-09 06:06 | 44.24119 | -3.97257 | 19842 ft | 287 kts | 350° |
| 2026-05-09 06:07 | 44.26101 | -3.97614 | 19845 ft | 287 kts | 349° |
| 2026-05-09 06:07 | 44.28084 | -3.97974 | 19842 ft | 287 kts | 349° |
| 2026-05-09 06:07 | 44.30064 | -3.98332 | 19844 ft | 287 kts | 349° |
| 2026-05-09 06:07 | 44.32042 | -3.98696 | 19844 ft | 287 kts | 349° |
| 2026-05-09 06:08 | 44.34015 | -3.99115 | 19840 ft | 286 kts | 346° |
| 2026-05-09 06:08 | 44.35947 | -3.99737 | 19845 ft | 284 kts | 341° |
| 2026-05-09 06:08 | 44.37849 | -4.00464 | 19847 ft | 284 kts | 341° |
| 2026-05-09 06:08 | 44.39751 | -4.01199 | 19845 ft | 284 kts | 341° |
| 2026-05-09 06:09 | 44.41638 | -4.01883 | 19847 ft | 284 kts | 342° |
| 2026-05-09 06:09 | 44.43557 | -4.02545 | 19846 ft | 284 kts | 343° |
| 2026-05-09 06:09 | 44.45476 | -4.03208 | 19845 ft | 284 kts | 342° |
| 2026-05-09 06:09 | 44.47390 | -4.03873 | 19847 ft | 284 kts | 342° |
| 2026-05-09 06:10 | 44.49307 | -4.04542 | 19848 ft | 283 kts | 342° |
| 2026-05-09 06:10 | 44.51219 | -4.05208 | 19848 ft | 283 kts | 343° |
| 2026-05-09 06:10 | 44.53131 | -4.05876 | 19849 ft | 283 kts | 343° |
| 2026-05-09 06:10 | 44.55042 | -4.06544 | 19848 ft | 283 kts | 343° |
| 2026-05-09 06:11 | 44.56929 | -4.07204 | 19847 ft | 283 kts | 343° |
| 2026-05-09 06:11 | 44.58837 | -4.07869 | 19848 ft | 282 kts | 343° |
| 2026-05-09 06:11 | 44.60744 | -4.08533 | 19852 ft | 282 kts | 343° |
| 2026-05-09 06:11 | 44.62651 | -4.09198 | 19853 ft | 282 kts | 343° |
| 2026-05-09 06:12 | 44.64554 | -4.09865 | 19852 ft | 282 kts | 343° |
| 2026-05-09 06:12 | 44.66459 | -4.10532 | 19852 ft | 282 kts | 343° |
| 2026-05-09 06:12 | 44.68361 | -4.11200 | 19852 ft | 282 kts | 343° |
| 2026-05-09 06:12 | 44.70260 | -4.11867 | 19855 ft | 281 kts | 343° |
| 2026-05-09 06:13 | 44.72134 | -4.12525 | 19855 ft | 281 kts | 343° |
| 2026-05-09 06:13 | 44.74031 | -4.13192 | 19851 ft | 281 kts | 343° |
| 2026-05-09 06:13 | 44.75926 | -4.13860 | 19851 ft | 281 kts | 343° |
| 2026-05-09 06:13 | 44.77821 | -4.14528 | 19857 ft | 281 kts | 343° |
| 2026-05-09 06:14 | 44.79713 | -4.15195 | 19856 ft | 280 kts | 343° |
| 2026-05-09 06:14 | 44.81607 | -4.15863 | 19857 ft | 280 kts | 344° |
| 2026-05-09 06:14 | 44.83495 | -4.16529 | 19856 ft | 280 kts | 344° |
| 2026-05-09 06:14 | 44.85384 | -4.17197 | 19858 ft | 280 kts | 344° |
| 2026-05-09 06:15 | 44.87273 | -4.17859 | 19857 ft | 280 kts | 344° |
| 2026-05-09 06:15 | 44.89156 | -4.18527 | 19857 ft | 279 kts | 344° |
| 2026-05-09 06:15 | 44.91015 | -4.19180 | 19858 ft | 279 kts | 344° |
| 2026-05-09 06:15 | 44.92899 | -4.19848 | 19855 ft | 279 kts | 344° |
| 2026-05-09 06:16 | 44.94781 | -4.20515 | 19861 ft | 279 kts | 344° |
| 2026-05-09 06:16 | 44.96662 | -4.21182 | 19859 ft | 279 kts | 344° |
| 2026-05-09 06:16 | 44.98541 | -4.21847 | 19860 ft | 278 kts | 344° |
| 2026-05-09 06:16 | 45.00419 | -4.22514 | 19859 ft | 278 kts | 344° |
| 2026-05-09 06:17 | 45.02294 | -4.23181 | 19861 ft | 278 kts | 344° |
| 2026-05-09 06:17 | 45.04171 | -4.23848 | 19864 ft | 278 kts | 344° |
| 2026-05-09 06:17 | 45.06022 | -4.24506 | 19862 ft | 278 kts | 344° |
| 2026-05-09 06:17 | 45.07893 | -4.25172 | 19862 ft | 278 kts | 344° |
| 2026-05-09 06:18 | 45.09767 | -4.25840 | 19863 ft | 278 kts | 344° |
| 2026-05-09 06:18 | 45.11638 | -4.26508 | 19861 ft | 277 kts | 344° |
| 2026-05-09 06:18 | 45.13512 | -4.27176 | 19864 ft | 277 kts | 344° |
| 2026-05-09 06:18 | 45.15381 | -4.27844 | 19867 ft | 277 kts | 344° |
| 2026-05-09 06:19 | 45.17250 | -4.28512 | 19862 ft | 277 kts | 344° |
| 2026-05-09 06:19 | 45.19120 | -4.29181 | 19865 ft | 277 kts | 345° |
| 2026-05-09 06:19 | 45.20987 | -4.29850 | 19863 ft | 277 kts | 345° |
| 2026-05-09 06:19 | 45.22854 | -4.30518 | 19866 ft | 277 kts | 345° |
| 2026-05-09 06:20 | 45.24694 | -4.31177 | 19866 ft | 276 kts | 345° |
| 2026-05-09 06:20 | 45.26558 | -4.31839 | 19864 ft | 276 kts | 345° |
| 2026-05-09 06:20 | 45.28422 | -4.32506 | 19866 ft | 276 kts | 345° |
| 2026-05-09 06:20 | 45.30287 | -4.33179 | 19868 ft | 276 kts | 345° |
| 2026-05-09 06:21 | 45.32150 | -4.33846 | 19869 ft | 276 kts | 345° |
| 2026-05-09 06:21 | 45.34012 | -4.34515 | 19869 ft | 276 kts | 345° |
| 2026-05-09 06:21 | 45.35871 | -4.35185 | 19869 ft | 276 kts | 345° |
| 2026-05-09 06:21 | 45.37733 | -4.35852 | 19868 ft | 276 kts | 345° |
| 2026-05-09 06:22 | 45.39592 | -4.36523 | 19871 ft | 276 kts | 345° |
| 2026-05-09 06:22 | 45.41425 | -4.37183 | 19872 ft | 275 kts | 345° |
| 2026-05-09 06:22 | 45.43281 | -4.37854 | 19868 ft | 275 kts | 345° |
| 2026-05-09 06:22 | 45.45139 | -4.38526 | 19869 ft | 275 kts | 345° |
| 2026-05-09 06:23 | 45.46994 | -4.39196 | 19872 ft | 275 kts | 345° |
| 2026-05-09 06:23 | 45.48850 | -4.39865 | 19871 ft | 275 kts | 345° |
| 2026-05-09 06:23 | 45.50704 | -4.40536 | 19871 ft | 275 kts | 345° |
| 2026-05-09 06:23 | 45.52557 | -4.41205 | 19870 ft | 275 kts | 345° |
| 2026-05-09 06:24 | 45.54413 | -4.41877 | 19873 ft | 275 kts | 345° |
| 2026-05-09 06:24 | 45.56263 | -4.42549 | 19874 ft | 275 kts | 345° |
| 2026-05-09 06:24 | 45.58092 | -4.43209 | 19874 ft | 275 kts | 345° |
| 2026-05-09 06:24 | 45.59947 | -4.43883 | 19873 ft | 275 kts | 345° |
| 2026-05-09 06:25 | 45.61797 | -4.44555 | 19873 ft | 274 kts | 345° |
| 2026-05-09 06:25 | 45.63645 | -4.45231 | 19878 ft | 274 kts | 345° |
| 2026-05-09 06:25 | 45.65497 | -4.45902 | 19876 ft | 274 kts | 345° |
| 2026-05-09 06:25 | 45.67344 | -4.46574 | 19872 ft | 274 kts | 345° |
| 2026-05-09 06:26 | 45.69193 | -4.47246 | 19876 ft | 274 kts | 345° |
| 2026-05-09 06:26 | 45.71018 | -4.47912 | 19873 ft | 274 kts | 345° |
| 2026-05-09 06:26 | 45.72864 | -4.48583 | 19877 ft | 274 kts | 345° |
| 2026-05-09 06:26 | 45.74711 | -4.49258 | 19878 ft | 274 kts | 345° |
| 2026-05-09 06:27 | 45.76557 | -4.49930 | 19879 ft | 274 kts | 345° |
| 2026-05-09 06:27 | 45.78404 | -4.50607 | 19880 ft | 274 kts | 345° |
| 2026-05-09 06:27 | 45.80249 | -4.51280 | 19876 ft | 274 kts | 345° |
| 2026-05-09 06:27 | 45.82094 | -4.51956 | 19880 ft | 274 kts | 345° |
| 2026-05-09 06:28 | 45.83936 | -4.52630 | 19879 ft | 274 kts | 345° |
| 2026-05-09 06:28 | 45.85779 | -4.53306 | 19881 ft | 273 kts | 345° |
| 2026-05-09 06:28 | 45.87599 | -4.53974 | 19882 ft | 273 kts | 345° |
| 2026-05-09 06:28 | 45.89441 | -4.54650 | 19883 ft | 273 kts | 345° |
| 2026-05-09 06:29 | 45.91282 | -4.55330 | 19881 ft | 273 kts | 345° |
| 2026-05-09 06:29 | 45.93123 | -4.56001 | 19881 ft | 273 kts | 345° |
| 2026-05-09 06:29 | 45.94963 | -4.56680 | 19883 ft | 273 kts | 345° |
| 2026-05-09 06:29 | 45.96804 | -4.57360 | 19882 ft | 273 kts | 345° |
| 2026-05-09 06:30 | 45.98643 | -4.58031 | 19881 ft | 273 kts | 345° |
| 2026-05-09 06:30 | 46.00483 | -4.58712 | 19882 ft | 273 kts | 345° |
| 2026-05-09 06:30 | 46.02298 | -4.59381 | 19881 ft | 273 kts | 345° |
| 2026-05-09 06:30 | 46.04136 | -4.60056 | 19879 ft | 273 kts | 345° |
| 2026-05-09 06:31 | 46.05972 | -4.60737 | 19882 ft | 273 kts | 345° |
| 2026-05-09 06:31 | 46.07812 | -4.61419 | 19882 ft | 273 kts | 345° |
| 2026-05-09 06:31 | 46.09649 | -4.62100 | 19881 ft | 273 kts | 345° |
| 2026-05-09 06:31 | 46.11486 | -4.62780 | 19884 ft | 273 kts | 345° |
| 2026-05-09 06:32 | 46.13324 | -4.63461 | 19883 ft | 273 kts | 345° |
| 2026-05-09 06:32 | 46.15159 | -4.64140 | 19883 ft | 273 kts | 345° |
| 2026-05-09 06:32 | 46.16973 | -4.64812 | 19886 ft | 272 kts | 345° |
| 2026-05-09 06:33 | 46.20646 | -4.66175 | 19882 ft | 272 kts | 345° |
| 2026-05-09 06:33 | 46.22479 | -4.66856 | 19887 ft | 272 kts | 345° |
| 2026-05-09 06:33 | 46.24314 | -4.67538 | 19886 ft | 272 kts | 345° |
| 2026-05-09 06:34 | 46.27988 | -4.68903 | 19885 ft | 272 kts | 345° |
| 2026-05-09 06:34 | 46.29821 | -4.69586 | 19883 ft | 272 kts | 345° |
| 2026-05-09 06:34 | 46.31658 | -4.70271 | 19886 ft | 272 kts | 345° |
| 2026-05-09 06:34 | 46.33468 | -4.70945 | 19888 ft | 272 kts | 345° |
| 2026-05-09 06:35 | 46.35301 | -4.71629 | 19885 ft | 272 kts | 345° |
| 2026-05-09 06:35 | 46.37138 | -4.72315 | 19886 ft | 272 kts | 345° |
| 2026-05-09 06:35 | 46.38971 | -4.72999 | 19885 ft | 272 kts | 344° |
| 2026-05-09 06:35 | 46.40805 | -4.73685 | 19888 ft | 272 kts | 344° |
| 2026-05-09 06:36 | 46.42640 | -4.74372 | 19887 ft | 272 kts | 344° |
| 2026-05-09 06:36 | 46.44472 | -4.75059 | 19887 ft | 272 kts | 344° |
| 2026-05-09 06:36 | 46.46306 | -4.75746 | 19888 ft | 272 kts | 344° |
| 2026-05-09 06:36 | 46.48141 | -4.76435 | 19889 ft | 272 kts | 344° |
| 2026-05-09 06:37 | 46.49975 | -4.77123 | 19889 ft | 272 kts | 344° |
| 2026-05-09 06:37 | 46.51782 | -4.77802 | 19890 ft | 272 kts | 345° |
| 2026-05-09 06:37 | 46.53615 | -4.78491 | 19890 ft | 272 kts | 345° |
| 2026-05-09 06:37 | 46.55446 | -4.79179 | 19889 ft | 272 kts | 345° |
| 2026-05-09 06:38 | 46.57278 | -4.79868 | 19889 ft | 272 kts | 345° |
| 2026-05-09 06:38 | 46.59111 | -4.80559 | 19890 ft | 272 kts | 345° |
| 2026-05-09 06:38 | 46.60942 | -4.81249 | 19889 ft | 272 kts | 345° |
| 2026-05-09 06:38 | 46.62774 | -4.81939 | 19892 ft | 272 kts | 344° |
| 2026-05-09 06:39 | 46.64581 | -4.82621 | 19894 ft | 272 kts | 344° |
| 2026-05-09 06:39 | 46.66411 | -4.83312 | 19894 ft | 272 kts | 344° |
| 2026-05-09 06:39 | 46.68243 | -4.84004 | 19891 ft | 272 kts | 344° |
| 2026-05-09 06:39 | 46.70071 | -4.84696 | 19891 ft | 272 kts | 344° |
| 2026-05-09 06:40 | 46.71905 | -4.85390 | 19894 ft | 272 kts | 344° |
| 2026-05-09 06:40 | 46.73735 | -4.86084 | 19892 ft | 272 kts | 344° |
| 2026-05-09 06:40 | 46.75566 | -4.86778 | 19894 ft | 272 kts | 344° |
| 2026-05-09 06:40 | 46.77396 | -4.87472 | 19892 ft | 272 kts | 344° |
| 2026-05-09 06:41 | 46.79226 | -4.88166 | 19893 ft | 272 kts | 344° |
| 2026-05-09 06:41 | 46.81034 | -4.88853 | 19890 ft | 272 kts | 344° |
| 2026-05-09 06:41 | 46.82866 | -4.89549 | 19891 ft | 272 kts | 344° |
| 2026-05-09 06:41 | 46.84698 | -4.90247 | 19893 ft | 272 kts | 344° |
| 2026-05-09 06:42 | 46.86529 | -4.90944 | 19892 ft | 272 kts | 344° |
| 2026-05-09 06:42 | 46.88360 | -4.91641 | 19895 ft | 272 kts | 344° |
| 2026-05-09 06:42 | 46.90194 | -4.92340 | 19896 ft | 272 kts | 344° |
| 2026-05-09 06:42 | 46.92027 | -4.93038 | 19892 ft | 272 kts | 344° |
| 2026-05-09 06:43 | 46.93861 | -4.93738 | 19892 ft | 272 kts | 344° |
| 2026-05-09 06:43 | 46.95694 | -4.94438 | 19898 ft | 272 kts | 344° |
| 2026-05-09 06:43 | 46.97505 | -4.95130 | 19900 ft | 273 kts | 344° |
| 2026-05-09 06:43 | 46.99341 | -4.95832 | 19895 ft | 273 kts | 344° |
| 2026-05-09 06:44 | 47.01175 | -4.96533 | 19896 ft | 273 kts | 344° |
| 2026-05-09 06:44 | 47.03011 | -4.97237 | 19894 ft | 273 kts | 344° |
| 2026-05-09 06:44 | 47.04847 | -4.97946 | 19897 ft | 273 kts | 344° |
| 2026-05-09 06:44 | 47.06683 | -4.98653 | 19895 ft | 273 kts | 344° |
| 2026-05-09 06:45 | 47.08523 | -4.99329 | 19896 ft | 273 kts | 346° |
| 2026-05-09 06:45 | 47.10381 | -4.99933 | 19896 ft | 273 kts | 347° |
| 2026-05-09 06:45 | 47.12216 | -5.00495 | 19894 ft | 273 kts | 347° |
| 2026-05-09 06:45 | 47.14075 | -5.01074 | 19894 ft | 273 kts | 347° |
| 2026-05-09 06:46 | 47.15936 | -5.01662 | 19897 ft | 274 kts | 347° |
| 2026-05-09 06:46 | 47.17799 | -5.02253 | 19898 ft | 274 kts | 347° |
| 2026-05-09 06:46 | 47.19662 | -5.02846 | 19898 ft | 274 kts | 347° |
| 2026-05-09 06:46 | 47.21525 | -5.03438 | 19897 ft | 274 kts | 347° |
| 2026-05-09 06:47 | 47.23391 | -5.04033 | 19898 ft | 274 kts | 347° |
| 2026-05-09 06:47 | 47.25257 | -5.04628 | 19896 ft | 275 kts | 347° |
| 2026-05-09 06:47 | 47.27101 | -5.05217 | 19903 ft | 275 kts | 347° |
| 2026-05-09 06:47 | 47.28971 | -5.05814 | 19901 ft | 275 kts | 347° |
| 2026-05-09 06:48 | 47.30842 | -5.06411 | 19901 ft | 275 kts | 347° |
| 2026-05-09 06:48 | 47.32717 | -5.07012 | 19899 ft | 276 kts | 347° |
| 2026-05-09 06:48 | 47.34592 | -5.07612 | 19901 ft | 276 kts | 347° |
| 2026-05-09 06:48 | 47.36471 | -5.08213 | 19902 ft | 276 kts | 347° |
| 2026-05-09 06:49 | 47.38352 | -5.08816 | 19902 ft | 277 kts | 347° |
| 2026-05-09 06:49 | 47.40233 | -5.09419 | 19903 ft | 277 kts | 347° |
| 2026-05-09 06:49 | 47.42088 | -5.10014 | 19903 ft | 277 kts | 347° |
| 2026-05-09 06:49 | 47.43969 | -5.10618 | 19904 ft | 277 kts | 347° |
| 2026-05-09 06:50 | 47.45858 | -5.11221 | 19902 ft | 277 kts | 348° |
| 2026-05-09 06:50 | 47.47741 | -5.11828 | 19905 ft | 277 kts | 347° |
| 2026-05-09 06:50 | 47.49629 | -5.12432 | 19908 ft | 278 kts | 348° |
| 2026-05-09 06:50 | 47.51516 | -5.13040 | 19905 ft | 278 kts | 348° |
| 2026-05-09 06:51 | 47.53405 | -5.13649 | 19905 ft | 278 kts | 348° |
| 2026-05-09 06:51 | 47.55295 | -5.14258 | 19906 ft | 278 kts | 348° |
| 2026-05-09 06:51 | 47.57183 | -5.14868 | 19906 ft | 278 kts | 348° |
| 2026-05-09 06:51 | 47.59045 | -5.15470 | 19909 ft | 278 kts | 348° |
| 2026-05-09 06:52 | 47.60934 | -5.16080 | 19910 ft | 278 kts | 348° |
| 2026-05-09 06:52 | 47.62823 | -5.16692 | 19909 ft | 278 kts | 348° |
| 2026-05-09 06:52 | 47.64711 | -5.17302 | 19911 ft | 278 kts | 348° |
| 2026-05-09 06:52 | 47.66599 | -5.17912 | 19913 ft | 278 kts | 349° |
| 2026-05-09 06:53 | 47.68488 | -5.18518 | 19912 ft | 278 kts | 349° |
| 2026-05-09 06:53 | 47.70375 | -5.19131 | 19914 ft | 277 kts | 349° |
| 2026-05-09 06:53 | 47.72259 | -5.19744 | 19915 ft | 278 kts | 349° |
| 2026-05-09 06:53 | 47.74148 | -5.20358 | 19918 ft | 278 kts | 349° |
| 2026-05-09 06:54 | 47.76008 | -5.20962 | 19914 ft | 278 kts | 349° |
| 2026-05-09 06:54 | 47.77892 | -5.21577 | 19919 ft | 278 kts | 349° |
| 2026-05-09 06:54 | 47.79780 | -5.22191 | 19916 ft | 278 kts | 349° |
| 2026-05-09 06:54 | 47.81667 | -5.22805 | 19917 ft | 278 kts | 349° |
| 2026-05-09 06:55 | 47.83550 | -5.23422 | 19919 ft | 277 kts | 349° |
| 2026-05-09 06:55 | 47.85433 | -5.24037 | 19923 ft | 277 kts | 349° |
| 2026-05-09 06:55 | 47.87318 | -5.24650 | 19923 ft | 277 kts | 349° |
| 2026-05-09 06:55 | 47.89172 | -5.25258 | 19923 ft | 277 kts | 349° |
| 2026-05-09 06:56 | 47.91052 | -5.25872 | 19922 ft | 276 kts | 349° |
| 2026-05-09 06:56 | 47.92930 | -5.26484 | 19924 ft | 276 kts | 349° |
| 2026-05-09 06:56 | 47.94802 | -5.27100 | 19920 ft | 276 kts | 349° |
| 2026-05-09 06:56 | 47.96674 | -5.27710 | 19924 ft | 275 kts | 349° |
| 2026-05-09 06:57 | 47.98541 | -5.28327 | 19926 ft | 275 kts | 349° |
| 2026-05-09 06:57 | 48.00409 | -5.28936 | 19922 ft | 275 kts | 349° |
| 2026-05-09 06:57 | 48.02277 | -5.29546 | 19925 ft | 274 kts | 349° |
| 2026-05-09 06:57 | 48.04115 | -5.30154 | 19939 ft | 275 kts | 349° |
| 2026-05-09 06:58 | 48.05986 | -5.30767 | 19936 ft | 276 kts | 349° |
| 2026-05-09 06:58 | 48.07859 | -5.31388 | 19941 ft | 277 kts | 349° |
| 2026-05-09 06:58 | 48.09745 | -5.32006 | 19931 ft | 278 kts | 349° |
| 2026-05-09 06:58 | 48.11627 | -5.32633 | 19923 ft | 277 kts | 349° |
| 2026-05-09 06:59 | 48.13507 | -5.33253 | 19925 ft | 276 kts | 349° |
| 2026-05-09 06:59 | 48.15380 | -5.33870 | 19932 ft | 275 kts | 349° |
| 2026-05-09 06:59 | 48.17249 | -5.34488 | 19930 ft | 275 kts | 349° |
| 2026-05-09 06:59 | 48.19112 | -5.35101 | 19938 ft | 275 kts | 349° |
| 2026-05-09 07:00 | 48.20952 | -5.35715 | 19938 ft | 274 kts | 349° |
| 2026-05-09 07:00 | 48.22813 | -5.36327 | 19940 ft | 274 kts | 349° |
| 2026-05-09 07:00 | 48.24673 | -5.36943 | 19942 ft | 274 kts | 349° |
| 2026-05-09 07:00 | 48.26534 | -5.37563 | 19940 ft | 274 kts | 349° |
| 2026-05-09 07:01 | 48.28393 | -5.38177 | 19940 ft | 274 kts | 349° |
| 2026-05-09 07:01 | 48.30250 | -5.38797 | 19947 ft | 274 kts | 349° |
| 2026-05-09 07:01 | 48.32109 | -5.39416 | 19945 ft | 274 kts | 349° |
| 2026-05-09 07:01 | 48.33973 | -5.40032 | 19947 ft | 274 kts | 349° |
| 2026-05-09 07:02 | 48.35832 | -5.40656 | 19943 ft | 274 kts | 349° |
| 2026-05-09 07:02 | 48.37667 | -5.41263 | 19948 ft | 274 kts | 349° |
| 2026-05-09 07:02 | 48.39529 | -5.41886 | 19949 ft | 274 kts | 349° |
| 2026-05-09 07:02 | 48.41388 | -5.42506 | 19948 ft | 274 kts | 349° |
| 2026-05-09 07:03 | 48.43245 | -5.43125 | 19950 ft | 274 kts | 349° |
| 2026-05-09 07:03 | 48.45105 | -5.43747 | 19951 ft | 274 kts | 349° |
| 2026-05-09 07:03 | 48.46962 | -5.44367 | 19954 ft | 274 kts | 349° |
| 2026-05-09 07:03 | 48.48822 | -5.44990 | 19954 ft | 274 kts | 349° |
| 2026-05-09 07:04 | 48.50684 | -5.45613 | 19953 ft | 274 kts | 349° |
| 2026-05-09 07:04 | 48.52517 | -5.46227 | 19957 ft | 274 kts | 349° |
| 2026-05-09 07:04 | 48.54376 | -5.46854 | 19954 ft | 274 kts | 349° |
| 2026-05-09 07:04 | 48.56235 | -5.47477 | 19959 ft | 274 kts | 349° |
| 2026-05-09 07:05 | 48.58093 | -5.48102 | 19961 ft | 274 kts | 349° |
| 2026-05-09 07:05 | 48.59953 | -5.48728 | 19958 ft | 273 kts | 349° |
| 2026-05-09 07:05 | 48.61810 | -5.49353 | 19960 ft | 273 kts | 349° |
| 2026-05-09 07:05 | 48.63666 | -5.49976 | 19963 ft | 273 kts | 349° |
| 2026-05-09 07:06 | 48.65520 | -5.50603 | 19962 ft | 273 kts | 349° |
| 2026-05-09 07:06 | 48.67376 | -5.51227 | 19962 ft | 273 kts | 349° |
| 2026-05-09 07:06 | 48.69206 | -5.51847 | 19963 ft | 273 kts | 349° |
| 2026-05-09 07:06 | 48.71059 | -5.52471 | 19964 ft | 273 kts | 349° |
| 2026-05-09 07:07 | 48.72913 | -5.53099 | 19963 ft | 273 kts | 349° |
| 2026-05-09 07:07 | 48.74768 | -5.53726 | 19965 ft | 273 kts | 349° |
| 2026-05-09 07:07 | 48.76620 | -5.54353 | 19968 ft | 273 kts | 349° |
| 2026-05-09 07:07 | 48.78470 | -5.54981 | 19966 ft | 273 kts | 349° |
| 2026-05-09 07:08 | 48.80323 | -5.55610 | 19969 ft | 273 kts | 349° |
| 2026-05-09 07:08 | 48.82174 | -5.56236 | 19968 ft | 272 kts | 349° |
| 2026-05-09 07:08 | 48.84022 | -5.56865 | 19969 ft | 272 kts | 349° |
| 2026-05-09 07:08 | 48.85847 | -5.57484 | 19971 ft | 272 kts | 349° |
| 2026-05-09 07:09 | 48.87697 | -5.58114 | 19970 ft | 272 kts | 349° |
| 2026-05-09 07:09 | 48.89542 | -5.58743 | 19970 ft | 272 kts | 349° |
| 2026-05-09 07:09 | 48.91392 | -5.59373 | 19971 ft | 272 kts | 349° |
| 2026-05-09 07:09 | 48.93241 | -5.60003 | 19972 ft | 272 kts | 349° |
| 2026-05-09 07:10 | 48.95087 | -5.60632 | 19974 ft | 272 kts | 349° |
| 2026-05-09 07:10 | 48.96933 | -5.61263 | 19974 ft | 272 kts | 349° |
| 2026-05-09 07:10 | 48.98782 | -5.61894 | 19974 ft | 272 kts | 349° |
| 2026-05-09 07:10 | 49.00626 | -5.62522 | 19976 ft | 272 kts | 349° |
| 2026-05-09 07:11 | 49.02451 | -5.63147 | 19979 ft | 272 kts | 349° |
| 2026-05-09 07:11 | 49.04298 | -5.63781 | 19977 ft | 272 kts | 349° |
| 2026-05-09 07:11 | 49.06149 | -5.64418 | 19993 ft | 273 kts | 349° |
| 2026-05-09 07:11 | 49.08007 | -5.65050 | 19991 ft | 275 kts | 349° |
| 2026-05-09 07:12 | 49.09877 | -5.65693 | 19976 ft | 276 kts | 349° |
| 2026-05-09 07:12 | 49.11748 | -5.66339 | 19971 ft | 275 kts | 349° |
| 2026-05-09 07:12 | 49.13615 | -5.66980 | 19974 ft | 275 kts | 349° |
| 2026-05-09 07:12 | 49.15478 | -5.67624 | 19976 ft | 274 kts | 349° |
| 2026-05-09 07:13 | 49.17309 | -5.68254 | 19981 ft | 273 kts | 349° |
| 2026-05-09 07:13 | 49.19163 | -5.68893 | 19983 ft | 273 kts | 349° |
| 2026-05-09 07:13 | 49.21015 | -5.69530 | 19981 ft | 272 kts | 349° |
| 2026-05-09 07:13 | 49.22861 | -5.70171 | 19985 ft | 272 kts | 349° |
| 2026-05-09 07:14 | 49.24709 | -5.70807 | 19988 ft | 272 kts | 349° |
| 2026-05-09 07:14 | 49.26549 | -5.71444 | 19988 ft | 272 kts | 349° |
| 2026-05-09 07:14 | 49.28396 | -5.72085 | 19990 ft | 272 kts | 349° |
| 2026-05-09 07:14 | 49.30241 | -5.72723 | 20004 ft | 273 kts | 349° |
| 2026-05-09 07:15 | 49.32070 | -5.73357 | 19992 ft | 273 kts | 349° |
| 2026-05-09 07:15 | 49.33928 | -5.74001 | 19985 ft | 273 kts | 349° |
| 2026-05-09 07:15 | 49.35781 | -5.74643 | 19995 ft | 273 kts | 349° |
| 2026-05-09 07:15 | 49.37636 | -5.75286 | 19995 ft | 273 kts | 349° |
| 2026-05-09 07:16 | 49.39491 | -5.75933 | 19991 ft | 273 kts | 349° |
| 2026-05-09 07:16 | 49.41342 | -5.76576 | 19997 ft | 272 kts | 349° |
| 2026-05-09 07:16 | 49.43189 | -5.77219 | 19998 ft | 272 kts | 349° |
| 2026-05-09 07:16 | 49.45035 | -5.77862 | 20000 ft | 272 kts | 349° |
| 2026-05-09 07:17 | 49.46857 | -5.78495 | 19999 ft | 272 kts | 349° |
| 2026-05-09 07:17 | 49.48698 | -5.79139 | 20001 ft | 272 kts | 348° |
| 2026-05-09 07:17 | 49.50542 | -5.79787 | 20002 ft | 272 kts | 348° |
| 2026-05-09 07:17 | 49.52384 | -5.80434 | 20001 ft | 271 kts | 349° |
| 2026-05-09 07:18 | 49.54230 | -5.81052 | 20002 ft | 271 kts | 349° |
| 2026-05-09 07:18 | 49.56073 | -5.81668 | 20003 ft | 271 kts | 349° |
| 2026-05-09 07:18 | 49.57919 | -5.82278 | 20004 ft | 271 kts | 349° |
| 2026-05-09 07:18 | 49.59764 | -5.82891 | 20006 ft | 271 kts | 349° |
| 2026-05-09 07:19 | 49.61610 | -5.83508 | 20003 ft | 271 kts | 349° |
| 2026-05-09 07:19 | 49.63430 | -5.84133 | 20004 ft | 272 kts | 349° |
| 2026-05-09 07:19 | 49.65275 | -5.84767 | 20012 ft | 273 kts | 348° |
| 2026-05-09 07:19 | 49.67131 | -5.85412 | 20010 ft | 273 kts | 349° |
| 2026-05-09 07:20 | 49.68987 | -5.86054 | 20009 ft | 274 kts | 348° |
| 2026-05-09 07:20 | 49.70849 | -5.86697 | 20007 ft | 274 kts | 349° |
| 2026-05-09 07:20 | 49.72708 | -5.87341 | 20008 ft | 274 kts | 349° |
| 2026-05-09 07:20 | 49.74567 | -5.87985 | 20013 ft | 274 kts | 348° |
| 2026-05-09 07:21 | 49.76423 | -5.88630 | 20015 ft | 273 kts | 348° |
| 2026-05-09 07:21 | 49.78256 | -5.89267 | 20015 ft | 273 kts | 348° |
| 2026-05-09 07:21 | 49.80108 | -5.89910 | 20016 ft | 273 kts | 348° |
| 2026-05-09 07:21 | 49.81964 | -5.90556 | 20017 ft | 273 kts | 348° |
| 2026-05-09 07:22 | 49.83816 | -5.91201 | 20018 ft | 273 kts | 348° |
| 2026-05-09 07:22 | 49.85665 | -5.91845 | 20020 ft | 273 kts | 348° |
| 2026-05-09 07:22 | 49.87518 | -5.92489 | 20020 ft | 273 kts | 348° |
| 2026-05-09 07:22 | 49.89372 | -5.93139 | 20020 ft | 273 kts | 348° |
| 2026-05-09 07:23 | 49.91226 | -5.93786 | 20020 ft | 273 kts | 348° |
| 2026-05-09 07:23 | 49.93082 | -5.94434 | 20021 ft | 273 kts | 348° |
| 2026-05-09 07:23 | 49.94910 | -5.95072 | 20022 ft | 273 kts | 348° |
| 2026-05-09 07:23 | 49.96765 | -5.95721 | 20019 ft | 273 kts | 348° |
| 2026-05-09 07:24 | 49.98618 | -5.96372 | 20022 ft | 273 kts | 348° |
| 2026-05-09 07:24 | 50.00473 | -5.97022 | 20023 ft | 273 kts | 348° |
| 2026-05-09 07:24 | 50.02328 | -5.97673 | 20023 ft | 273 kts | 348° |
| 2026-05-09 07:24 | 50.04184 | -5.98324 | 20023 ft | 273 kts | 348° |
| 2026-05-09 07:25 | 50.06040 | -5.98976 | 20024 ft | 273 kts | 348° |
| 2026-05-09 07:25 | 50.07892 | -5.99626 | 20022 ft | 273 kts | 348° |
| 2026-05-09 07:25 | 50.09120 | -6.00061 | 20023 ft | 273 kts | 348° |
| 2026-05-09 07:25 | 50.10974 | -6.00713 | 20026 ft | 273 kts | 348° |
| 2026-05-09 07:26 | 50.13425 | -6.01579 | 20024 ft | 272 kts | 348° |
| 2026-05-09 07:26 | 50.15271 | -6.02227 | 20026 ft | 272 kts | 348° |
| 2026-05-09 07:26 | 50.17119 | -6.02881 | 20028 ft | 272 kts | 348° |
| 2026-05-09 07:26 | 50.18962 | -6.03531 | 20027 ft | 272 kts | 348° |
| 2026-05-09 07:27 | 50.20182 | -6.03963 | 20028 ft | 271 kts | 348° |
| 2026-05-09 07:27 | 50.22021 | -6.04614 | 20030 ft | 271 kts | 348° |
| 2026-05-09 07:27 | 50.23859 | -6.05265 | 20034 ft | 271 kts | 348° |
| 2026-05-09 07:27 | 50.25697 | -6.05915 | 20035 ft | 270 kts | 348° |
| 2026-05-09 07:28 | 50.27529 | -6.06565 | 20035 ft | 270 kts | 348° |
| 2026-05-09 07:28 | 50.29953 | -6.07426 | 20040 ft | 270 kts | 348° |
| 2026-05-09 07:28 | 50.31189 | -6.07865 | 20044 ft | 270 kts | 348° |
| 2026-05-09 07:28 | 50.32996 | -6.08506 | 20056 ft | 270 kts | 348° |
| 2026-05-09 07:29 | 50.34835 | -6.09161 | 20063 ft | 272 kts | 348° |
| 2026-05-09 07:29 | 50.36685 | -6.09821 | 20043 ft | 273 kts | 348° |
| 2026-05-09 07:29 | 50.38540 | -6.10485 | 20035 ft | 273 kts | 348° |
| 2026-05-09 07:29 | 50.40390 | -6.11146 | 20042 ft | 272 kts | 348° |
| 2026-05-09 07:30 | 50.42232 | -6.11801 | 20044 ft | 271 kts | 348° |
| 2026-05-09 07:30 | 50.44072 | -6.12457 | 20047 ft | 271 kts | 348° |
| 2026-05-09 07:30 | 50.45906 | -6.13112 | 20047 ft | 270 kts | 348° |
| 2026-05-09 07:30 | 50.47737 | -6.13766 | 20051 ft | 270 kts | 348° |
| 2026-05-09 07:31 | 50.49567 | -6.14421 | 20050 ft | 270 kts | 348° |
| 2026-05-09 07:31 | 50.51399 | -6.15079 | 20056 ft | 270 kts | 348° |
| 2026-05-09 07:31 | 50.53205 | -6.15727 | 20055 ft | 270 kts | 348° |
| 2026-05-09 07:31 | 50.55036 | -6.16385 | 20060 ft | 270 kts | 348° |
| 2026-05-09 07:32 | 50.56872 | -6.17044 | 20058 ft | 271 kts | 348° |
| 2026-05-09 07:32 | 50.58710 | -6.17705 | 20063 ft | 271 kts | 348° |
| 2026-05-09 07:32 | 50.60543 | -6.18369 | 20060 ft | 271 kts | 348° |
| 2026-05-09 07:32 | 50.62387 | -6.19031 | 20064 ft | 271 kts | 348° |
| 2026-05-09 07:33 | 50.64226 | -6.19691 | 20060 ft | 271 kts | 348° |
| 2026-05-09 07:33 | 50.67887 | -6.21010 | 20061 ft | 272 kts | 348° |
| 2026-05-09 07:33 | 50.69728 | -6.21674 | 20067 ft | 272 kts | 348° |
| 2026-05-09 07:34 | 50.71574 | -6.22345 | 20070 ft | 272 kts | 348° |
| 2026-05-09 07:34 | 50.73415 | -6.23012 | 20074 ft | 272 kts | 348° |
| 2026-05-09 07:34 | 50.75262 | -6.23685 | 20071 ft | 272 kts | 348° |
| 2026-05-09 07:34 | 50.77109 | -6.24357 | 20075 ft | 272 kts | 348° |
| 2026-05-09 07:35 | 50.78954 | -6.25024 | 20076 ft | 272 kts | 348° |
| 2026-05-09 07:35 | 50.80801 | -6.25700 | 20078 ft | 272 kts | 348° |
| 2026-05-09 07:35 | 50.82646 | -6.26393 | 20075 ft | 272 kts | 348° |
| 2026-05-09 07:35 | 50.84463 | -6.27084 | 20071 ft | 272 kts | 347° |
| 2026-05-09 07:36 | 50.86307 | -6.27780 | 20081 ft | 272 kts | 348° |
| 2026-05-09 07:36 | 50.88152 | -6.28451 | 20083 ft | 272 kts | 348° |
| 2026-05-09 07:36 | 50.89999 | -6.29125 | 20082 ft | 272 kts | 348° |
| 2026-05-09 07:36 | 50.91838 | -6.29797 | 20088 ft | 272 kts | 348° |
| 2026-05-09 07:37 | 50.93680 | -6.30464 | 20085 ft | 272 kts | 348° |
| 2026-05-09 07:37 | 50.95520 | -6.31140 | 20087 ft | 271 kts | 348° |
| 2026-05-09 07:37 | 50.97361 | -6.31815 | 20084 ft | 271 kts | 348° |
| 2026-05-09 07:37 | 50.99171 | -6.32479 | 20090 ft | 271 kts | 348° |
| 2026-05-09 07:38 | 51.01006 | -6.33149 | 20093 ft | 271 kts | 348° |
| 2026-05-09 07:38 | 51.02840 | -6.33825 | 20096 ft | 270 kts | 348° |
| 2026-05-09 07:38 | 51.04672 | -6.34494 | 20091 ft | 270 kts | 348° |
| 2026-05-09 07:38 | 51.06503 | -6.35166 | 20096 ft | 270 kts | 348° |
| 2026-05-09 07:39 | 51.08331 | -6.35838 | 20098 ft | 270 kts | 348° |
| 2026-05-09 07:39 | 51.10160 | -6.36507 | 20099 ft | 269 kts | 348° |
| 2026-05-09 07:39 | 51.11986 | -6.37180 | 20096 ft | 269 kts | 348° |
| 2026-05-09 07:39 | 51.13809 | -6.37851 | 20101 ft | 269 kts | 348° |
| 2026-05-09 07:40 | 51.15604 | -6.38512 | 20102 ft | 269 kts | 348° |
| 2026-05-09 07:40 | 51.17448 | -6.39196 | 20097 ft | 268 kts | 348° |
| 2026-05-09 07:40 | 51.19241 | -6.39857 | 20101 ft | 268 kts | 348° |
| 2026-05-09 07:40 | 51.21059 | -6.40529 | 20107 ft | 268 kts | 348° |
| 2026-05-09 07:41 | 51.22872 | -6.41202 | 20109 ft | 268 kts | 348° |
| 2026-05-09 07:41 | 51.24687 | -6.41873 | 20111 ft | 267 kts | 347° |
| 2026-05-09 07:41 | 51.26493 | -6.42552 | 20113 ft | 267 kts | 347° |
| 2026-05-09 07:41 | 51.28302 | -6.43197 | 20112 ft | 266 kts | 349° |
| 2026-05-09 07:42 | 51.30125 | -6.43737 | 20113 ft | 266 kts | 351° |
| 2026-05-09 07:42 | 51.31955 | -6.44192 | 20114 ft | 266 kts | 352° |
| 2026-05-09 07:42 | 51.33761 | -6.44642 | 20116 ft | 266 kts | 351° |
| 2026-05-09 07:42 | 51.35588 | -6.45118 | 20119 ft | 266 kts | 351° |
| 2026-05-09 07:43 | 51.37414 | -6.45596 | 20120 ft | 266 kts | 351° |
| 2026-05-09 07:43 | 51.39245 | -6.46075 | 20120 ft | 267 kts | 351° |
| 2026-05-09 07:43 | 51.41075 | -6.46554 | 20121 ft | 267 kts | 351° |
| 2026-05-09 07:43 | 51.42906 | -6.47032 | 20126 ft | 267 kts | 351° |
| 2026-05-09 07:44 | 51.44742 | -6.47516 | 20125 ft | 267 kts | 351° |
| 2026-05-09 07:44 | 51.46574 | -6.48001 | 20126 ft | 267 kts | 351° |
| 2026-05-09 07:44 | 51.48404 | -6.48485 | 20122 ft | 267 kts | 351° |
| 2026-05-09 07:44 | 51.50216 | -6.48964 | 20130 ft | 267 kts | 351° |
| 2026-05-09 07:45 | 51.52050 | -6.49446 | 20130 ft | 267 kts | 350° |
| 2026-05-09 07:45 | 51.53882 | -6.49931 | 20133 ft | 267 kts | 350° |
| 2026-05-09 07:45 | 51.55711 | -6.50412 | 20134 ft | 267 kts | 350° |
| 2026-05-09 07:45 | 51.57542 | -6.50895 | 20135 ft | 267 kts | 350° |
| 2026-05-09 07:46 | 51.59373 | -6.51378 | 20135 ft | 266 kts | 350° |
| 2026-05-09 07:46 | 51.61201 | -6.51858 | 20140 ft | 266 kts | 350° |
| 2026-05-09 07:46 | 51.63030 | -6.52340 | 20137 ft | 266 kts | 349° |
| 2026-05-09 07:46 | 51.64830 | -6.52820 | 20140 ft | 266 kts | 350° |
| 2026-05-09 07:47 | 51.66656 | -6.53307 | 20144 ft | 266 kts | 350° |
| 2026-05-09 07:47 | 51.68482 | -6.53787 | 20143 ft | 266 kts | 349° |
| 2026-05-09 07:47 | 51.70304 | -6.54275 | 20144 ft | 266 kts | 350° |
| 2026-05-09 07:47 | 51.72128 | -6.54752 | 20144 ft | 265 kts | 349° |
| 2026-05-09 07:48 | 51.73951 | -6.55226 | 20150 ft | 265 kts | 349° |
| 2026-05-09 07:48 | 51.75772 | -6.55699 | 20150 ft | 265 kts | 349° |
| 2026-05-09 07:48 | 51.77593 | -6.56176 | 20145 ft | 265 kts | 349° |
| 2026-05-09 07:48 | 51.79392 | -6.56609 | 20153 ft | 265 kts | 353° |
| 2026-05-09 07:49 | 51.81235 | -6.56760 | 20154 ft | 266 kts | 357° |
| 2026-05-09 07:49 | 51.83085 | -6.56799 | 20153 ft | 266 kts | 358° |
| 2026-05-09 07:49 | 51.84936 | -6.56850 | 20156 ft | 266 kts | 356° |
| 2026-05-09 07:49 | 51.86785 | -6.56968 | 20158 ft | 266 kts | 355° |
| 2026-05-09 07:50 | 51.88634 | -6.57117 | 20160 ft | 266 kts | 355° |
| 2026-05-09 07:50 | 51.90478 | -6.57282 | 20158 ft | 266 kts | 354° |
| 2026-05-09 07:50 | 51.92324 | -6.57462 | 20161 ft | 265 kts | 354° |
| 2026-05-09 07:50 | 51.94139 | -6.57644 | 20159 ft | 265 kts | 354° |
| 2026-05-09 07:51 | 51.95981 | -6.57808 | 20165 ft | 265 kts | 354° |
| 2026-05-09 07:51 | 51.97823 | -6.57943 | 20166 ft | 265 kts | 355° |
| 2026-05-09 07:51 | 51.99665 | -6.58080 | 20165 ft | 265 kts | 355° |
| 2026-05-09 07:51 | 52.01511 | -6.58207 | 20164 ft | 265 kts | 355° |
| 2026-05-09 07:52 | 52.03351 | -6.58339 | 20166 ft | 265 kts | 354° |
| 2026-05-09 07:52 | 52.05192 | -6.58484 | 20170 ft | 265 kts | 353° |
| 2026-05-09 07:52 | 52.07034 | -6.58632 | 20174 ft | 265 kts | 353° |
| 2026-05-09 07:52 | 52.08849 | -6.58780 | 20172 ft | 265 kts | 354° |
| 2026-05-09 07:53 | 52.10690 | -6.58940 | 20174 ft | 265 kts | 354° |
| 2026-05-09 07:53 | 52.12525 | -6.59092 | 20176 ft | 265 kts | 354° |
| 2026-05-09 07:53 | 52.14366 | -6.59239 | 20177 ft | 265 kts | 353° |
| 2026-05-09 07:53 | 52.16205 | -6.59388 | 20178 ft | 265 kts | 353° |
| 2026-05-09 07:54 | 52.18045 | -6.59533 | 20184 ft | 265 kts | 353° |
| 2026-05-09 07:54 | 52.19887 | -6.59667 | 20182 ft | 265 kts | 354° |
| 2026-05-09 07:54 | 52.21724 | -6.59806 | 20184 ft | 265 kts | 353° |
| 2026-05-09 07:54 | 52.23538 | -6.59955 | 20188 ft | 265 kts | 354° |
| 2026-05-09 07:55 | 52.25378 | -6.60104 | 20184 ft | 265 kts | 354° |
| 2026-05-09 07:55 | 52.27221 | -6.60255 | 20182 ft | 265 kts | 353° |
| 2026-05-09 07:55 | 52.29061 | -6.60402 | 20185 ft | 265 kts | 353° |
| 2026-05-09 07:55 | 52.30878 | -6.60549 | 20423 ft | 255 kts | 353° |
| 2026-05-09 07:56 | 52.32608 | -6.60695 | 20720 ft | 244 kts | 353° |
| 2026-05-09 07:56 | 52.34291 | -6.60835 | 20870 ft | 242 kts | 353° |
| 2026-05-09 07:56 | 52.35968 | -6.60972 | 20964 ft | 241 kts | 353° |
| 2026-05-09 07:56 | 52.37634 | -6.61105 | 21088 ft | 240 kts | 353° |
| 2026-05-09 07:57 | 52.39282 | -6.61239 | 21145 ft | 242 kts | 353° |
| 2026-05-09 07:57 | 52.40974 | -6.61373 | 21170 ft | 245 kts | 353° |
| 2026-05-09 07:57 | 52.42682 | -6.61508 | 21181 ft | 247 kts | 353° |
| 2026-05-09 07:57 | 52.44411 | -6.61647 | 21186 ft | 250 kts | 353° |
| 2026-05-09 07:58 | 52.46152 | -6.61789 | 21192 ft | 252 kts | 353° |
| 2026-05-09 07:58 | 52.47913 | -6.61930 | 21199 ft | 254 kts | 353° |
| 2026-05-09 07:58 | 52.49682 | -6.62073 | 21196 ft | 256 kts | 353° |
| 2026-05-09 07:58 | 52.51460 | -6.62217 | 21197 ft | 257 kts | 353° |
| 2026-05-09 07:59 | 52.53229 | -6.62359 | 21204 ft | 258 kts | 353° |
| 2026-05-09 07:59 | 52.55027 | -6.62502 | 21201 ft | 260 kts | 353° |
| 2026-05-09 07:59 | 52.56834 | -6.62651 | 21205 ft | 260 kts | 353° |
| 2026-05-09 07:59 | 52.58645 | -6.62799 | 21202 ft | 261 kts | 353° |
| 2026-05-09 08:00 | 52.60460 | -6.62950 | 21202 ft | 261 kts | 353° |
| 2026-05-09 08:00 | 52.62276 | -6.63107 | 21202 ft | 260 kts | 353° |
| 2026-05-09 08:00 | 52.64079 | -6.62760 | 21209 ft | 264 kts | 10° |
| 2026-05-09 08:00 | 52.65840 | -6.61975 | 21202 ft | 267 kts | 12° |
| 2026-05-09 08:01 | 52.67628 | -6.61152 | 21208 ft | 267 kts | 11° |
| 2026-05-09 08:01 | 52.69428 | -6.60400 | 21207 ft | 267 kts | 9° |
| 2026-05-09 08:01 | 52.71240 | -6.59741 | 21212 ft | 267 kts | 8° |
| 2026-05-09 08:01 | 52.73056 | -6.59111 | 21208 ft | 267 kts | 7° |
| 2026-05-09 08:02 | 52.74876 | -6.58484 | 21216 ft | 267 kts | 7° |
| 2026-05-09 08:02 | 52.76694 | -6.57858 | 21207 ft | 267 kts | 7° |
| 2026-05-09 08:02 | 52.78508 | -6.57211 | 21218 ft | 267 kts | 8° |
| 2026-05-09 08:02 | 52.80323 | -6.56554 | 21216 ft | 267 kts | 8° |
| 2026-05-09 08:03 | 52.82111 | -6.55904 | 21220 ft | 267 kts | 8° |
| 2026-05-09 08:03 | 52.83927 | -6.55244 | 21220 ft | 268 kts | 8° |
| 2026-05-09 08:03 | 52.85749 | -6.54578 | 21223 ft | 268 kts | 8° |
| 2026-05-09 08:03 | 52.87570 | -6.53910 | 21224 ft | 268 kts | 8° |
| 2026-05-09 08:04 | 52.89392 | -6.53242 | 21230 ft | 269 kts | 8° |
| 2026-05-09 08:04 | 52.91219 | -6.52574 | 21220 ft | 269 kts | 7° |
| 2026-05-09 08:04 | 52.93048 | -6.51909 | 21222 ft | 269 kts | 7° |
| 2026-05-09 08:04 | 52.94876 | -6.51239 | 21227 ft | 269 kts | 7° |
| 2026-05-09 08:05 | 52.96707 | -6.50566 | 21228 ft | 269 kts | 7° |
| 2026-05-09 08:05 | 52.98535 | -6.49896 | 21232 ft | 269 kts | 7° |
| 2026-05-09 08:05 | 53.00343 | -6.49233 | 21238 ft | 270 kts | 7° |
| 2026-05-09 08:05 | 53.02181 | -6.48559 | 21231 ft | 271 kts | 7° |
| 2026-05-09 08:06 | 53.04016 | -6.47885 | 21228 ft | 270 kts | 7° |
| 2026-05-09 08:06 | 53.05852 | -6.47211 | 21231 ft | 270 kts | 7° |
| 2026-05-09 08:06 | 53.07680 | -6.46540 | 21239 ft | 269 kts | 7° |
| 2026-05-09 08:06 | 53.09509 | -6.45866 | 21230 ft | 269 kts | 7° |
| 2026-05-09 08:07 | 53.11335 | -6.45192 | 21239 ft | 269 kts | 7° |
| 2026-05-09 08:07 | 53.13166 | -6.44515 | 21246 ft | 269 kts | 7° |
| 2026-05-09 08:07 | 53.14999 | -6.43838 | 21243 ft | 270 kts | 7° |
| 2026-05-09 08:07 | 53.16810 | -6.43169 | 21235 ft | 270 kts | 7° |
| 2026-05-09 08:08 | 53.18640 | -6.42491 | 21243 ft | 270 kts | 7° |
| 2026-05-09 08:08 | 53.20477 | -6.41810 | 21242 ft | 270 kts | 7° |
| 2026-05-09 08:08 | 53.22313 | -6.41130 | 21239 ft | 271 kts | 7° |
| 2026-05-09 08:08 | 53.24149 | -6.40450 | 21239 ft | 271 kts | 7° |
| 2026-05-09 08:09 | 53.25988 | -6.39767 | 21236 ft | 271 kts | 7° |
| 2026-05-09 08:09 | 53.27829 | -6.39082 | 21240 ft | 271 kts | 7° |
| 2026-05-09 08:09 | 53.29665 | -6.38398 | 21243 ft | 271 kts | 7° |
| 2026-05-09 08:09 | 53.31477 | -6.37723 | 21239 ft | 270 kts | 7° |
| 2026-05-09 08:10 | 53.33314 | -6.37040 | 21241 ft | 270 kts | 7° |
| 2026-05-09 08:10 | 53.35149 | -6.36355 | 21242 ft | 270 kts | 7° |
| 2026-05-09 08:10 | 53.36984 | -6.35669 | 21239 ft | 270 kts | 7° |
| 2026-05-09 08:10 | 53.38823 | -6.34982 | 21242 ft | 270 kts | 7° |
| 2026-05-09 08:11 | 53.40659 | -6.34300 | 21242 ft | 271 kts | 7° |
| 2026-05-09 08:11 | 53.42496 | -6.33618 | 21241 ft | 271 kts | 7° |
| 2026-05-09 08:11 | 53.44312 | -6.32936 | 21242 ft | 271 kts | 7° |
| 2026-05-09 08:11 | 53.46149 | -6.32249 | 21240 ft | 271 kts | 6° |
| 2026-05-09 08:12 | 53.49826 | -6.30883 | 21240 ft | 271 kts | 7° |
| 2026-05-09 08:12 | 53.51658 | -6.30106 | 21233 ft | 272 kts | 9° |
| 2026-05-09 08:12 | 53.53484 | -6.29254 | 21236 ft | 273 kts | 10° |
| 2026-05-09 08:13 | 53.55314 | -6.28403 | 21245 ft | 273 kts | 9° |
| 2026-05-09 08:13 | 53.57149 | -6.27577 | 21242 ft | 274 kts | 9° |
| 2026-05-09 08:13 | 53.58992 | -6.26745 | 21242 ft | 275 kts | 9° |
| 2026-05-09 08:13 | 53.60837 | -6.25914 | 21242 ft | 275 kts | 9° |
| 2026-05-09 08:14 | 53.62665 | -6.25087 | 21244 ft | 276 kts | 9° |
| 2026-05-09 08:14 | 53.64515 | -6.24252 | 21244 ft | 276 kts | 9° |
| 2026-05-09 08:14 | 53.66373 | -6.23412 | 21244 ft | 276 kts | 9° |
| 2026-05-09 08:14 | 53.68229 | -6.22571 | 21244 ft | 276 kts | 9° |
| 2026-05-09 08:15 | 53.70085 | -6.21730 | 21245 ft | 276 kts | 9° |
| 2026-05-09 08:15 | 53.71944 | -6.20886 | 21243 ft | 277 kts | 9° |
| 2026-05-09 08:15 | 53.73804 | -6.20041 | 21246 ft | 277 kts | 9° |
| 2026-05-09 08:15 | 53.75663 | -6.19197 | 21248 ft | 277 kts | 9° |
| 2026-05-09 08:16 | 53.77499 | -6.18362 | 21247 ft | 277 kts | 9° |
| 2026-05-09 08:16 | 53.79359 | -6.17516 | 21248 ft | 277 kts | 9° |
| 2026-05-09 08:16 | 53.81218 | -6.16668 | 21247 ft | 277 kts | 9° |
| 2026-05-09 08:16 | 53.83080 | -6.15819 | 21248 ft | 277 kts | 9° |
| 2026-05-09 08:17 | 53.84946 | -6.14967 | 21250 ft | 277 kts | 9° |
| 2026-05-09 08:17 | 53.86805 | -6.14115 | 21247 ft | 277 kts | 9° |
| 2026-05-09 08:17 | 53.88671 | -6.13267 | 21253 ft | 277 kts | 9° |
| 2026-05-09 08:17 | 53.90533 | -6.12421 | 21250 ft | 277 kts | 9° |
| 2026-05-09 08:18 | 53.92398 | -6.11569 | 21253 ft | 278 kts | 9° |
| 2026-05-09 08:18 | 53.94234 | -6.10728 | 21250 ft | 278 kts | 9° |
| 2026-05-09 08:18 | 53.96099 | -6.09872 | 21254 ft | 278 kts | 9° |
| 2026-05-09 08:18 | 53.97967 | -6.09014 | 21251 ft | 278 kts | 9° |
| 2026-05-09 08:19 | 53.99828 | -6.08159 | 21255 ft | 278 kts | 9° |
| 2026-05-09 08:19 | 54.01695 | -6.07311 | 21256 ft | 278 kts | 9° |
| 2026-05-09 08:19 | 54.03554 | -6.06437 | 21255 ft | 278 kts | 14° |
| 2026-05-09 08:19 | 54.05309 | -6.05058 | 21256 ft | 283 kts | 24° |
| 2026-05-09 08:20 | 54.07039 | -6.03442 | 21254 ft | 285 kts | 24° |
| 2026-05-09 08:20 | 54.08780 | -6.01832 | 21255 ft | 285 kts | 23° |
| 2026-05-09 08:20 | 54.10550 | -6.00323 | 21251 ft | 284 kts | 21° |
| 2026-05-09 08:20 | 54.12335 | -5.98891 | 21255 ft | 284 kts | 20° |
| 2026-05-09 08:21 | 54.14121 | -5.97449 | 21259 ft | 284 kts | 20° |
| 2026-05-09 08:21 | 54.15902 | -5.95986 | 21255 ft | 284 kts | 21° |
| 2026-05-09 08:21 | 54.17684 | -5.94521 | 21248 ft | 284 kts | 21° |
| 2026-05-09 08:21 | 54.19462 | -5.93058 | 21244 ft | 284 kts | 20° |
| 2026-05-09 08:22 | 54.21216 | -5.91619 | 21251 ft | 283 kts | 21° |
| 2026-05-09 08:22 | 54.22986 | -5.90163 | 21254 ft | 283 kts | 21° |
| 2026-05-09 08:22 | 54.24759 | -5.88703 | 21259 ft | 283 kts | 21° |
| 2026-05-09 08:22 | 54.26536 | -5.87235 | 21257 ft | 284 kts | 21° |
| 2026-05-09 08:23 | 54.28314 | -5.85769 | 21259 ft | 284 kts | 21° |
| 2026-05-09 08:23 | 54.30092 | -5.84299 | 21259 ft | 284 kts | 21° |
| 2026-05-09 08:23 | 54.31868 | -5.82829 | 21261 ft | 284 kts | 21° |
| 2026-05-09 08:23 | 54.33644 | -5.81358 | 21259 ft | 284 kts | 21° |
| 2026-05-09 08:24 | 54.35424 | -5.79887 | 21257 ft | 284 kts | 21° |
| 2026-05-09 08:24 | 54.37177 | -5.78433 | 21259 ft | 284 kts | 21° |
| 2026-05-09 08:24 | 54.38956 | -5.76954 | 21264 ft | 284 kts | 21° |
| 2026-05-09 08:24 | 54.40736 | -5.75477 | 21264 ft | 284 kts | 21° |
| 2026-05-09 08:25 | 54.42516 | -5.73995 | 21263 ft | 285 kts | 21° |
| 2026-05-09 08:25 | 54.44302 | -5.72509 | 21258 ft | 285 kts | 21° |
| 2026-05-09 08:25 | 54.46082 | -5.71024 | 21262 ft | 285 kts | 21° |
| 2026-05-09 08:25 | 54.47867 | -5.69536 | 21264 ft | 285 kts | 21° |
| 2026-05-09 08:26 | 54.49626 | -5.68066 | 21261 ft | 285 kts | 21° |
| 2026-05-09 08:26 | 54.51404 | -5.66579 | 21266 ft | 285 kts | 21° |
| 2026-05-09 08:26 | 54.53187 | -5.65089 | 21266 ft | 285 kts | 21° |
| 2026-05-09 08:26 | 54.54970 | -5.63596 | 21267 ft | 285 kts | 21° |
| 2026-05-09 08:27 | 54.56751 | -5.62103 | 21267 ft | 285 kts | 21° |
| 2026-05-09 08:27 | 54.58531 | -5.60611 | 21266 ft | 285 kts | 21° |
| 2026-05-09 08:27 | 54.60276 | -5.58988 | 21265 ft | 287 kts | 31° |
| 2026-05-09 08:27 | 54.61813 | -5.56754 | 21266 ft | 291 kts | 40° |
| 2026-05-09 08:28 | 54.63274 | -5.54335 | 21263 ft | 292 kts | 41° |
| 2026-05-09 08:28 | 54.64720 | -5.51943 | 21264 ft | 292 kts | 40° |
| 2026-05-09 08:28 | 54.66222 | -5.49584 | 21257 ft | 291 kts | 38° |
| 2026-05-09 08:28 | 54.67750 | -5.47292 | 21256 ft | 291 kts | 37° |
| 2026-05-09 08:29 | 54.69276 | -5.44999 | 21254 ft | 291 kts | 38° |
| 2026-05-09 08:29 | 54.70800 | -5.42686 | 21259 ft | 291 kts | 38° |
| 2026-05-09 08:29 | 54.72317 | -5.40375 | 21258 ft | 291 kts | 38° |
| 2026-05-09 08:29 | 54.73839 | -5.38057 | 21259 ft | 291 kts | 38° |
| 2026-05-09 08:30 | 54.75359 | -5.35742 | 21256 ft | 291 kts | 38° |
| 2026-05-09 08:30 | 54.76861 | -5.33454 | 21248 ft | 291 kts | 38° |
| 2026-05-09 08:30 | 54.78378 | -5.31137 | 21247 ft | 291 kts | 38° |
| 2026-05-09 08:30 | 54.79901 | -5.28812 | 21249 ft | 291 kts | 38° |
| 2026-05-09 08:31 | 54.81419 | -5.26491 | 21250 ft | 291 kts | 38° |
| 2026-05-09 08:31 | 54.82942 | -5.24162 | 21249 ft | 292 kts | 38° |
| 2026-05-09 08:31 | 54.84459 | -5.21835 | 21241 ft | 292 kts | 38° |
| 2026-05-09 08:31 | 54.85983 | -5.19499 | 21249 ft | 292 kts | 38° |
| 2026-05-09 08:32 | 54.87482 | -5.17196 | 21246 ft | 292 kts | 38° |
| 2026-05-09 08:32 | 54.89072 | -5.15067 | 21242 ft | 287 kts | 26° |
| 2026-05-09 08:32 | 54.92649 | -5.12139 | 21249 ft | 284 kts | 18° |
| 2026-05-09 08:33 | 54.94458 | -5.10728 | 21248 ft | 285 kts | 20° |
| 2026-05-09 08:33 | 54.96248 | -5.09230 | 21245 ft | 286 kts | 21° |
| 2026-05-09 08:33 | 54.98028 | -5.07658 | 21241 ft | 287 kts | 22° |
| 2026-05-09 08:33 | 54.99813 | -5.06098 | 21252 ft | 287 kts | 21° |
| 2026-05-09 08:34 | 55.01596 | -5.04557 | 21239 ft | 286 kts | 21° |
| 2026-05-09 08:34 | 55.03371 | -5.03024 | 21248 ft | 285 kts | 21° |
| 2026-05-09 08:34 | 55.05127 | -5.01503 | 21249 ft | 288 kts | 21° |
| 2026-05-09 08:34 | 55.06928 | -4.99938 | 21246 ft | 290 kts | 21° |
| 2026-05-09 08:35 | 55.08740 | -4.98367 | 21245 ft | 292 kts | 21° |
| 2026-05-09 08:35 | 55.10566 | -4.96787 | 21246 ft | 294 kts | 21° |
| 2026-05-09 08:35 | 55.12393 | -4.95202 | 21241 ft | 292 kts | 22° |
| 2026-05-09 08:35 | 55.14203 | -4.93577 | 21252 ft | 293 kts | 22° |
| 2026-05-09 08:36 | 55.16021 | -4.91938 | 21247 ft | 295 kts | 22° |
| 2026-05-09 08:36 | 55.17849 | -4.90285 | 21254 ft | 296 kts | 22° |
| 2026-05-09 08:36 | 55.19658 | -4.88685 | 21253 ft | 295 kts | 21° |
| 2026-05-09 08:36 | 55.21486 | -4.87080 | 21254 ft | 293 kts | 21° |
| 2026-05-09 08:37 | 55.23311 | -4.85476 | 21253 ft | 292 kts | 21° |
| 2026-05-09 08:37 | 55.25128 | -4.83875 | 21254 ft | 293 kts | 21° |
| 2026-05-09 08:37 | 55.26958 | -4.82265 | 21256 ft | 295 kts | 21° |
| 2026-05-09 08:37 | 55.28795 | -4.80647 | 21257 ft | 297 kts | 22° |
| 2026-05-09 08:38 | 55.30640 | -4.79018 | 21258 ft | 298 kts | 21° |
| 2026-05-09 08:38 | 55.32449 | -4.77343 | 21260 ft | 300 kts | 27° |
| 2026-05-09 08:38 | 55.34188 | -4.75275 | 21259 ft | 303 kts | 32° |
| 2026-05-09 08:38 | 55.35883 | -4.73077 | 21258 ft | 304 kts | 32° |
| 2026-05-09 08:39 | 55.37585 | -4.70870 | 21262 ft | 304 kts | 32° |
| 2026-05-09 08:39 | 55.39312 | -4.68715 | 21267 ft | 304 kts | 31° |
| 2026-05-09 08:39 | 55.41053 | -4.66613 | 21268 ft | 304 kts | 30° |
| 2026-05-09 08:39 | 55.42796 | -4.64493 | 21266 ft | 304 kts | 31° |
| 2026-05-09 08:40 | 55.44534 | -4.62376 | 21268 ft | 304 kts | 31° |
| 2026-05-09 08:40 | 55.46252 | -4.60277 | 21266 ft | 305 kts | 31° |
| 2026-05-09 08:40 | 55.47996 | -4.58152 | 21269 ft | 305 kts | 31° |
| 2026-05-09 08:40 | 55.49742 | -4.56015 | 21270 ft | 305 kts | 31° |
| 2026-05-09 08:41 | 55.51487 | -4.53878 | 21270 ft | 306 kts | 31° |
| 2026-05-09 08:41 | 55.53238 | -4.51732 | 21265 ft | 306 kts | 31° |
| 2026-05-09 08:41 | 55.54985 | -4.49592 | 21265 ft | 306 kts | 31° |
| 2026-05-09 08:41 | 55.56732 | -4.47445 | 21266 ft | 306 kts | 31° |
| 2026-05-09 08:42 | 55.58479 | -4.45299 | 21266 ft | 306 kts | 31° |
| 2026-05-09 08:42 | 55.60230 | -4.43144 | 21270 ft | 306 kts | 31° |
| 2026-05-09 08:42 | 55.61956 | -4.41015 | 21273 ft | 307 kts | 31° |
| 2026-05-09 08:42 | 55.63730 | -4.38829 | 21272 ft | 308 kts | 31° |
| 2026-05-09 08:43 | 55.65464 | -4.36689 | 21264 ft | 308 kts | 31° |
| 2026-05-09 08:43 | 55.67225 | -4.34511 | 21278 ft | 308 kts | 31° |
| 2026-05-09 08:43 | 55.68980 | -4.32340 | 21281 ft | 308 kts | 31° |
| 2026-05-09 08:43 | 55.70737 | -4.30162 | 21283 ft | 308 kts | 31° |
| 2026-05-09 08:44 | 55.72497 | -4.27983 | 21281 ft | 308 kts | 31° |
| 2026-05-09 08:44 | 55.74250 | -4.25809 | 21283 ft | 307 kts | 31° |
| 2026-05-09 08:44 | 55.76003 | -4.23626 | 21287 ft | 307 kts | 31° |
| 2026-05-09 08:44 | 55.77753 | -4.21449 | 21290 ft | 307 kts | 31° |
| 2026-05-09 08:45 | 55.79480 | -4.19295 | 21288 ft | 308 kts | 31° |
| 2026-05-09 08:45 | 55.81234 | -4.17107 | 21283 ft | 308 kts | 31° |
| 2026-05-09 08:45 | 55.82984 | -4.14924 | 21288 ft | 307 kts | 31° |
| 2026-05-09 08:45 | 55.84735 | -4.12736 | 21289 ft | 308 kts | 31° |
| 2026-05-09 08:46 | 55.86490 | -4.10540 | 21289 ft | 308 kts | 31° |
| 2026-05-09 08:46 | 55.88237 | -4.08349 | 21286 ft | 308 kts | 31° |
| 2026-05-09 08:46 | 55.89992 | -4.06147 | 21285 ft | 308 kts | 31° |
| 2026-05-09 08:46 | 55.91722 | -4.03975 | 21282 ft | 308 kts | 31° |
| 2026-05-09 08:47 | 55.93471 | -4.01777 | 21283 ft | 308 kts | 31° |
| 2026-05-09 08:47 | 55.95227 | -3.99571 | 21284 ft | 309 kts | 31° |
| 2026-05-09 08:47 | 55.96983 | -3.97358 | 21279 ft | 309 kts | 31° |
| 2026-05-09 08:47 | 55.98736 | -3.95144 | 21275 ft | 309 kts | 31° |
| 2026-05-09 08:48 | 56.00488 | -3.92936 | 21281 ft | 309 kts | 31° |
| 2026-05-09 08:48 | 56.02246 | -3.90714 | 21278 ft | 309 kts | 31° |
| 2026-05-09 08:48 | 56.03998 | -3.88494 | 21279 ft | 309 kts | 31° |
| 2026-05-09 08:48 | 56.05735 | -3.86294 | 21282 ft | 309 kts | 31° |
| 2026-05-09 08:49 | 56.07487 | -3.84068 | 21285 ft | 310 kts | 31° |
| 2026-05-09 08:49 | 56.09249 | -3.81835 | 21283 ft | 310 kts | 31° |
| 2026-05-09 08:49 | 56.11007 | -3.79601 | 21279 ft | 310 kts | 31° |
| 2026-05-09 08:49 | 56.12768 | -3.77358 | 21285 ft | 310 kts | 31° |
| 2026-05-09 08:50 | 56.14527 | -3.75114 | 21284 ft | 311 kts | 32° |
| 2026-05-09 08:50 | 56.16291 | -3.72864 | 21289 ft | 311 kts | 31° |
| 2026-05-09 08:50 | 56.18054 | -3.70610 | 21283 ft | 312 kts | 31° |
| 2026-05-09 08:50 | 56.19799 | -3.68382 | 21281 ft | 312 kts | 31° |
| 2026-05-09 08:51 | 56.21566 | -3.66124 | 21276 ft | 312 kts | 32° |
| 2026-05-09 08:51 | 56.23331 | -3.63866 | 21293 ft | 311 kts | 32° |
| 2026-05-09 08:51 | 56.25093 | -3.61604 | 21286 ft | 312 kts | 32° |
| 2026-05-09 08:51 | 56.26858 | -3.59332 | 21283 ft | 312 kts | 32° |
| 2026-05-09 08:52 | 56.28622 | -3.57058 | 21285 ft | 312 kts | 32° |
| 2026-05-09 08:52 | 56.30386 | -3.54789 | 21287 ft | 312 kts | 32° |
| 2026-05-09 08:52 | 56.32149 | -3.52521 | 21285 ft | 312 kts | 32° |
| 2026-05-09 08:52 | 56.33915 | -3.50239 | 21284 ft | 312 kts | 32° |
| 2026-05-09 08:53 | 56.35657 | -3.47986 | 21283 ft | 312 kts | 32° |
| 2026-05-09 08:53 | 56.37422 | -3.45703 | 21290 ft | 312 kts | 32° |
| 2026-05-09 08:53 | 56.39189 | -3.43417 | 21283 ft | 312 kts | 32° |
| 2026-05-09 08:53 | 56.40952 | -3.41130 | 21291 ft | 312 kts | 32° |
| 2026-05-09 08:54 | 56.42716 | -3.38839 | 21290 ft | 313 kts | 32° |
| 2026-05-09 08:54 | 56.44488 | -3.36554 | 21289 ft | 313 kts | 31° |
| 2026-05-09 08:54 | 56.46287 | -3.34331 | 21292 ft | 312 kts | 30° |
| 2026-05-09 08:54 | 56.48060 | -3.32153 | 21291 ft | 313 kts | 30° |
| 2026-05-09 08:55 | 56.49859 | -3.29930 | 21291 ft | 313 kts | 30° |
| 2026-05-09 08:55 | 56.51652 | -3.27705 | 21290 ft | 313 kts | 31° |
| 2026-05-09 08:55 | 56.53444 | -3.25479 | 21292 ft | 313 kts | 30° |
| 2026-05-09 08:55 | 56.55241 | -3.23250 | 21291 ft | 313 kts | 30° |
| 2026-05-09 08:56 | 56.57037 | -3.21020 | 21293 ft | 313 kts | 30° |
| 2026-05-09 08:56 | 56.58832 | -3.18787 | 21294 ft | 313 kts | 30° |
| 2026-05-09 08:56 | 56.60629 | -3.16551 | 21286 ft | 313 kts | 31° |
| 2026-05-09 08:56 | 56.62426 | -3.14309 | 21296 ft | 313 kts | 31° |
| 2026-05-09 08:57 | 56.64220 | -3.12068 | 21295 ft | 314 kts | 31° |
| 2026-05-09 08:57 | 56.65996 | -3.09848 | 21297 ft | 314 kts | 31° |
| 2026-05-09 08:57 | 56.67792 | -3.07603 | 21286 ft | 314 kts | 31° |
| 2026-05-09 08:57 | 56.69595 | -3.05344 | 21287 ft | 314 kts | 31° |
| 2026-05-09 08:58 | 56.71393 | -3.03092 | 21289 ft | 314 kts | 31° |
| 2026-05-09 08:58 | 56.73197 | -3.00832 | 21289 ft | 314 kts | 31° |
| 2026-05-09 08:58 | 56.75000 | -2.98575 | 21297 ft | 315 kts | 31° |
| 2026-05-09 08:58 | 56.76798 | -2.96309 | 21289 ft | 315 kts | 31° |
| 2026-05-09 08:59 | 56.78600 | -2.94033 | 21293 ft | 315 kts | 31° |
| 2026-05-09 08:59 | 56.80378 | -2.91787 | 21289 ft | 315 kts | 31° |
| 2026-05-09 08:59 | 56.82184 | -2.89504 | 21289 ft | 316 kts | 31° |
| 2026-05-09 08:59 | 56.83991 | -2.87217 | 21295 ft | 316 kts | 31° |
| 2026-05-09 09:00 | 56.85795 | -2.84932 | 21297 ft | 316 kts | 31° |
| 2026-05-09 09:00 | 56.87600 | -2.82642 | 21290 ft | 316 kts | 31° |
| 2026-05-09 09:00 | 56.89407 | -2.80347 | 21290 ft | 316 kts | 31° |
| 2026-05-09 09:00 | 56.91210 | -2.78062 | 21299 ft | 316 kts | 31° |
| 2026-05-09 09:01 | 56.92996 | -2.75794 | 21297 ft | 316 kts | 31° |
| 2026-05-09 09:01 | 56.94799 | -2.73498 | 21298 ft | 317 kts | 31° |
| 2026-05-09 09:01 | 56.96613 | -2.71183 | 21291 ft | 317 kts | 31° |
| 2026-05-09 09:01 | 56.98418 | -2.68875 | 21294 ft | 316 kts | 31° |
| 2026-05-09 09:02 | 57.00221 | -2.66570 | 21292 ft | 316 kts | 31° |
| 2026-05-09 09:02 | 57.02028 | -2.64267 | 21295 ft | 316 kts | 31° |
| 2026-05-09 09:02 | 57.03837 | -2.61978 | 21299 ft | 316 kts | 31° |
| 2026-05-09 09:02 | 57.05652 | -2.59702 | 21295 ft | 316 kts | 30° |
| 2026-05-09 09:03 | 57.07467 | -2.57417 | 21296 ft | 317 kts | 31° |
| 2026-05-09 09:03 | 57.09252 | -2.55140 | 21296 ft | 317 kts | 31° |
| 2026-05-09 09:03 | 57.11061 | -2.52813 | 21298 ft | 318 kts | 31° |
| 2026-05-09 09:03 | 57.12872 | -2.50471 | 21295 ft | 318 kts | 31° |
| 2026-05-09 09:04 | 57.14683 | -2.48129 | 21296 ft | 318 kts | 31° |
| 2026-05-09 09:04 | 57.16499 | -2.45788 | 21297 ft | 318 kts | 31° |
| 2026-05-09 09:04 | 57.18305 | -2.43443 | 21298 ft | 318 kts | 31° |
| 2026-05-09 09:04 | 57.20118 | -2.41097 | 21297 ft | 318 kts | 32° |
| 2026-05-09 09:05 | 57.21932 | -2.38745 | 21295 ft | 318 kts | 32° |
| 2026-05-09 09:05 | 57.23715 | -2.36429 | 21287 ft | 318 kts | 32° |
| 2026-05-09 09:05 | 57.25527 | -2.34072 | 21302 ft | 318 kts | 32° |
| 2026-05-09 09:05 | 57.27337 | -2.31715 | 21296 ft | 318 kts | 32° |
| 2026-05-09 09:06 | 57.29151 | -2.29370 | 21290 ft | 317 kts | 29° |
| 2026-05-09 09:06 | 57.31143 | -2.27909 | 21298 ft | 303 kts | 360° |
| 2026-05-09 09:06 | 57.33165 | -2.28133 | 21301 ft | 284 kts | 337° |
| 2026-05-09 09:06 | 57.35006 | -2.29257 | 21305 ft | 275 kts | 327° |
| 2026-05-09 09:07 | 57.36742 | -2.30625 | 21292 ft | 274 kts | 326° |
| 2026-05-09 09:07 | 57.38499 | -2.32027 | 21300 ft | 276 kts | 326° |
| 2026-05-09 09:07 | 57.40277 | -2.33357 | 21302 ft | 278 kts | 328° |
| 2026-05-09 09:07 | 57.42093 | -2.34627 | 21309 ft | 279 kts | 329° |
| 2026-05-09 09:08 | 57.43913 | -2.35893 | 21303 ft | 279 kts | 328° |
| 2026-05-09 09:08 | 57.45731 | -2.37181 | 21307 ft | 279 kts | 328° |
| 2026-05-09 09:08 | 57.47550 | -2.38465 | 21312 ft | 280 kts | 328° |
| 2026-05-09 09:08 | 57.49375 | -2.39760 | 21313 ft | 280 kts | 328° |
| 2026-05-09 09:09 | 57.51175 | -2.41031 | 21317 ft | 281 kts | 328° |
| 2026-05-09 09:09 | 57.52998 | -2.42335 | 21314 ft | 281 kts | 328° |
| 2026-05-09 09:09 | 57.54831 | -2.43643 | 21257 ft | 285 kts | 328° |
| 2026-05-09 09:09 | 57.56673 | -2.44955 | 21070 ft | 281 kts | 328° |
| 2026-05-09 09:10 | 57.58508 | -2.46195 | 20858 ft | 282 kts | 333° |
| 2026-05-09 09:10 | 57.60406 | -2.47098 | 20661 ft | 282 kts | 337° |
| 2026-05-09 09:10 | 57.62322 | -2.47909 | 20458 ft | 282 kts | 338° |
| 2026-05-09 09:10 | 57.64228 | -2.48724 | 20245 ft | 280 kts | 337° |
| 2026-05-09 09:11 | 57.66110 | -2.49588 | 20046 ft | 278 kts | 336° |
| 2026-05-09 09:11 | 57.67950 | -2.50475 | 19850 ft | 276 kts | 336° |
| 2026-05-09 09:11 | 57.69808 | -2.51399 | 19643 ft | 275 kts | 335° |
| 2026-05-09 09:11 | 57.71651 | -2.52334 | 19455 ft | 274 kts | 335° |
| 2026-05-09 09:12 | 57.73490 | -2.53264 | 19257 ft | 273 kts | 336° |
| 2026-05-09 09:12 | 57.75329 | -2.54163 | 19061 ft | 273 kts | 336° |
| 2026-05-09 09:12 | 57.77165 | -2.55059 | 18868 ft | 272 kts | 336° |
| 2026-05-09 09:12 | 57.78999 | -2.55955 | 18679 ft | 272 kts | 337° |
| 2026-05-09 09:13 | 57.80828 | -2.56851 | 18458 ft | 271 kts | 337° |
| 2026-05-09 09:13 | 57.82630 | -2.57725 | 18247 ft | 271 kts | 337° |
| 2026-05-09 09:13 | 57.84452 | -2.58617 | 18026 ft | 270 kts | 338° |
| 2026-05-09 09:13 | 57.86268 | -2.59507 | 17808 ft | 270 kts | 338° |
| 2026-05-09 09:14 | 57.88083 | -2.60398 | 17586 ft | 269 kts | 338° |
| 2026-05-09 09:14 | 57.89897 | -2.61290 | 17369 ft | 269 kts | 338° |
| 2026-05-09 09:14 | 57.91705 | -2.62180 | 17156 ft | 268 kts | 338° |
| 2026-05-09 09:14 | 57.93510 | -2.63068 | 16944 ft | 268 kts | 338° |
| 2026-05-09 09:15 | 57.95316 | -2.63950 | 16724 ft | 268 kts | 338° |
| 2026-05-09 09:15 | 57.97118 | -2.64839 | 16520 ft | 267 kts | 338° |
| 2026-05-09 09:15 | 57.98920 | -2.65728 | 16245 ft | 269 kts | 339° |
| 2026-05-09 09:15 | 58.00714 | -2.66615 | 15959 ft | 271 kts | 339° |
| 2026-05-09 09:16 | 58.02543 | -2.67522 | 15654 ft | 273 kts | 339° |
| 2026-05-09 09:16 | 58.06242 | -2.69348 | 15037 ft | 275 kts | 339° |
| 2026-05-09 09:16 | 58.08095 | -2.70268 | 14740 ft | 276 kts | 339° |
| 2026-05-09 09:17 | 58.09950 | -2.71189 | 14447 ft | 276 kts | 340° |
| 2026-05-09 09:17 | 58.11803 | -2.72112 | 14147 ft | 275 kts | 340° |
| 2026-05-09 09:17 | 58.13657 | -2.73035 | 13817 ft | 275 kts | 340° |
| 2026-05-09 09:17 | 58.15480 | -2.73946 | 13488 ft | 274 kts | 340° |
| 2026-05-09 09:18 | 58.17320 | -2.74859 | 13162 ft | 273 kts | 340° |
| 2026-05-09 09:18 | 58.19158 | -2.75775 | 12829 ft | 272 kts | 340° |
| 2026-05-09 09:18 | 58.20983 | -2.76687 | 12508 ft | 271 kts | 341° |
| 2026-05-09 09:18 | 58.22802 | -2.77599 | 12190 ft | 270 kts | 341° |
| 2026-05-09 09:19 | 58.24613 | -2.78511 | 11871 ft | 268 kts | 341° |
| 2026-05-09 09:19 | 58.26417 | -2.79407 | 11560 ft | 267 kts | 341° |
| 2026-05-09 09:19 | 58.28211 | -2.80306 | 11243 ft | 266 kts | 341° |
| 2026-05-09 09:19 | 58.29997 | -2.81204 | 10942 ft | 265 kts | 341° |
| 2026-05-09 09:20 | 58.31744 | -2.82083 | 10581 ft | 262 kts | 342° |
| 2026-05-09 09:20 | 58.33441 | -2.82927 | 9969 ft | 241 kts | 342° |
| 2026-05-09 09:20 | 58.34998 | -2.83695 | 9276 ft | 221 kts | 341° |
| 2026-05-09 09:20 | 58.36233 | -2.85054 | 8595 ft | 197 kts | 312° |
| 2026-05-09 09:21 | 58.37127 | -2.86988 | 7921 ft | 192 kts | 307° |
| 2026-05-09 09:21 | 58.37922 | -2.88994 | 7277 ft | 188 kts | 305° |
| 2026-05-09 09:21 | 58.38680 | -2.91008 | 6642 ft | 186 kts | 304° |
| 2026-05-09 09:21 | 58.39427 | -2.93009 | 5967 ft | 184 kts | 305° |
| 2026-05-09 09:22 | 58.40175 | -2.94979 | 5243 ft | 185 kts | 307° |
| 2026-05-09 09:22 | 58.40935 | -2.96936 | 4452 ft | 187 kts | 307° |
| 2026-05-09 09:22 | 58.41719 | -2.98908 | 3659 ft | 187 kts | 308° |
| 2026-05-09 09:22 | 58.42505 | -3.00879 | 2878 ft | 186 kts | 308° |
| 2026-05-09 09:23 | 58.43269 | -3.02806 | 2430 ft | 170 kts | 308° |
| 2026-05-09 09:23 | 58.43927 | -3.04438 | 2238 ft | 143 kts | 319° |
| 2026-05-09 09:23 | 58.44601 | -3.05712 | 1400 ft | 130 kts | 323° |
| 2026-05-09 09:23 | 58.45103 | -3.07161 | 494 ft | 132 kts | 301° |
| 2026-05-09 09:24 | 58.45594 | -3.08554 | 135 ft | 119 kts | 306° |
| 2026-05-09 09:24 | 58.45986 | -3.09564 | 120 ft | 44 kts | 307° |
| 2026-05-09 09:24 | 58.46041 | -3.09704 | 120 ft | 11 kts | 307° |
| 2026-05-09 09:24 | 58.46074 | -3.09765 | 120 ft | 1 kts | 270° |
| 2026-05-09 09:25 | 58.46021 | -3.09707 | 118 ft | 26 kts | 124° |
| 2026-05-09 09:25 | 58.45909 | -3.09410 | 116 ft | 25 kts | 126° |
| 2026-05-09 09:25 | 58.45815 | -3.09161 | 117 ft | 22 kts | 126° |
| 2026-05-09 09:25 | 58.45730 | -3.08946 | 119 ft | 19 kts | 126° |
| 2026-05-09 09:26 | 58.45649 | -3.08742 | 117 ft | 19 kts | 129° |
| 2026-05-09 09:26 | 58.45574 | -3.08611 | 119 ft | 8 kts | 184° |
| 2026-05-09 09:26 | 58.45536 | -3.08689 | 120 ft | 9 kts | 227° |
| 2026-05-09 09:26 | 58.45487 | -3.08776 | 120 ft | 10 kts | 222° |
| 2026-05-09 09:27 | 58.45437 | -3.08766 | 117 ft | 8 kts | 156° |
| 2026-05-09 09:27 | 58.45412 | -3.08732 | 118 ft | 1 kts | 50° |
| 2026-05-09 09:27 | 58.45418 | -3.08738 | 117 ft | 0 kts | 343° |